Observation data for Endee on 05/27/2019      Previous  Date  Next       Current Mesonet Observations  Soil Data  Daily Summary Page  Observations in Plain Language
KEN1 270500Z 17010KT 18/14 A2989 RMK A01 T01760144  RH  082%=      5-min Rain = 0
KEN1 270501Z 17011KT 17/15 A2989 RMK A01 T01740145  RH  083%=      5-min Rain = 0
KEN1 270502Z 17011KT 17/15 A2989 RMK A01 T01740145  RH  083%=      5-min Rain = 0
KEN1 270503Z 17010KT 17/15 A2988 RMK A01 T01730145  RH  084%=      5-min Rain = 0
KEN1 270504Z 17010KT 17/15 A2988 RMK A01 T01730145  RH  083%=      5-min Rain = 0
KEN1 270505Z 17010KT 17/14 A2988 RMK A01 T01720144  RH  084%=      5-min Rain = 0
KEN1 270506Z 17010KT 17/15 A2988 RMK A01 T01720145  RH  084%=      5-min Rain = 0
KEN1 270507Z 16012KT 17/15 A2988 RMK A01 T01720147  RH  085%=      5-min Rain = 0
KEN1 270508Z 17013KT 17/15 A2988 RMK A01 T01720148  RH  086%=      5-min Rain = 0
KEN1 270509Z 17012KT 17/15 A2988 RMK A01 T01740149  RH  085%=      5-min Rain = 0
KEN1 270510Z 17010KT 18/15 A2988 RMK A01 T01750149  RH  085%=      5-min Rain = 0
KEN1 270511Z 17010KT 17/15 A2988 RMK A01 T01740147  RH  084%=      5-min Rain = 0
KEN1 270512Z 17010KT 17/15 A2988 RMK A01 T01720147  RH  085%=      5-min Rain = 0
KEN1 270513Z 17010KT 17/15 A2988 RMK A01 T01700147  RH  086%=      5-min Rain = 0
KEN1 270514Z 17010KT 17/15 A2988 RMK A01 T01690147  RH  087%=      5-min Rain = 0
KEN1 270515Z 17011KT 17/15 A2988 RMK A01 T01690148  RH  087%=      5-min Rain = 0
KEN1 270516Z 17009KT 17/15 A2988 RMK A01 T01710149  RH  087%=      5-min Rain = 0
KEN1 270517Z 17009KT 17/15 A2988 RMK A01 T01710148  RH  087%=      5-min Rain = 0
KEN1 270518Z 16009KT 17/15 A2988 RMK A01 T01700148  RH  087%=      5-min Rain = 0
KEN1 270519Z 17010KT 17/15 A2988 RMK A01 T01690147  RH  087%=      5-min Rain = 0
KEN1 270520Z 17010KT 17/15 A2988 RMK A01 T01680147  RH  087%=      5-min Rain = 0
KEN1 270521Z 17010KT 17/15 A2988 RMK A01 T01680148  RH  088%=      5-min Rain = 0
KEN1 270522Z 17010KT 17/15 A2988 RMK A01 T01680149  RH  088%=      5-min Rain = 0
KEN1 270523Z 18009KT 17/15 A2988 RMK A01 T01670149  RH  089%=      5-min Rain = 0
KEN1 270524Z 18009KT 17/15 A2988 RMK A01 T01670149  RH  089%=      5-min Rain = 0
KEN1 270525Z 18009KT 17/15 A2988 RMK A01 T01670149  RH  089%=      5-min Rain = 0
KEN1 270526Z 18009KT 17/15 A2988 RMK A01 T01660150  RH  090%=      5-min Rain = 0
KEN1 270527Z 18010KT 17/15 A2988 RMK A01 T01660150  RH  090%=      5-min Rain = 0
KEN1 270528Z 18009KT 17/15 A2988 RMK A01 T01670151  RH  091%=      5-min Rain = 0
KEN1 270529Z 18010KT 17/15 A2988 RMK A01 T01670152  RH  091%=      5-min Rain = 0
KEN1 270530Z 18011KT 17/15 A2988 RMK A01 T01680153  RH  091%=      5-min Rain = 0
KEN1 270531Z 18010KT 17/15 A2988 RMK A01 T01690154  RH  091%=      5-min Rain = 0
KEN1 270532Z 19010KT 17/15 A2988 RMK A01 T01690154  RH  091%=      5-min Rain = 0
KEN1 270533Z 18011KT 17/15 A2988 RMK A01 T01690154  RH  091%=      5-min Rain = 0
KEN1 270534Z 18010KT 17/15 A2988 RMK A01 T01700154  RH  090%=      5-min Rain = 0
KEN1 270535Z 18010KT 17/15 A2988 RMK A01 T01700154  RH  090%=      5-min Rain = 0
KEN1 270536Z 18009KT 17/15 A2988 RMK A01 T01700154  RH  091%=      5-min Rain = 0
KEN1 270537Z 19009KT 17/15 A2988 RMK A01 T01680153  RH  091%=      5-min Rain = 0
KEN1 270538Z 19008KT 17/15 A2988 RMK A01 T01680153  RH  091%=      5-min Rain = 0
KEN1 270539Z 19008KT 17/15 A2988 RMK A01 T01670153  RH  092%=      5-min Rain = 0
KEN1 270540Z 19007KT 17/15 A2988 RMK A01 T01660153  RH  092%=      5-min Rain = 0
KEN1 270541Z 20007KT 17/15 A2988 RMK A01 T01650153  RH  092%=      5-min Rain = 0
KEN1 270542Z 20007KT 17/15 A2988 RMK A01 T01650153  RH  093%=      5-min Rain = 0
KEN1 270543Z 20007KT 16/15 A2988 RMK A01 T01640152  RH  093%=      5-min Rain = 0
KEN1 270544Z 20007KT 16/15 A2988 RMK A01 T01630152  RH  093%=      5-min Rain = 0
KEN1 270545Z 20007KT 16/15 A2988 RMK A01 T01630152  RH  093%=      5-min Rain = 0
KEN1 270546Z 20006KT 16/15 A2988 RMK A01 T01630152  RH  093%=      5-min Rain = 0
KEN1 270547Z 20006KT 16/15 A2988 RMK A01 T01630152  RH  094%=      5-min Rain = 0
KEN1 270548Z 20006KT 16/15 A2988 RMK A01 T01620152  RH  094%=      5-min Rain = 0
KEN1 270549Z 20007KT 16/15 A2988 RMK A01 T01620152  RH  094%=      5-min Rain = 0
KEN1 270550Z 20006KT 16/15 A2988 RMK A01 T01610152  RH  094%=      5-min Rain = 0
KEN1 270551Z 19006KT 16/15 A2988 RMK A01 T01610152  RH  094%=      5-min Rain = 0
KEN1 270552Z 20005KT 16/15 A2988 RMK A01 T01610151  RH  094%=      5-min Rain = 0
KEN1 270553Z 19005KT 16/15 A2988 RMK A01 T01610151  RH  094%=      5-min Rain = 0
KEN1 270554Z 19007KT 16/15 A2988 RMK A01 T01600151  RH  094%=      5-min Rain = 0
KEN1 270555Z 19007KT 16/15 A2988 RMK A01 T01600151  RH  095%=      5-min Rain = 0
KEN1 270556Z 18007KT 16/15 A2988 RMK A01 T01600151  RH  095%=      5-min Rain = 0
KEN1 270557Z 19007KT 16/15 A2988 RMK A01 T01600152  RH  095%=      5-min Rain = 0
KEN1 270558Z 19007KT 16/15 A2988 RMK A01 T01600152  RH  095%=      5-min Rain = 0
KEN1 270559Z 18007KT 16/15 A2988 RMK A01 T01610154  RH  095%=      5-min Rain = 0
KEN1 270600Z 18008KT 16/15 A2988 RMK A01 T01620154  RH  095%=      5-min Rain = 0
KEN1 270601Z 18009KT 16/16 A2988 RMK A01 T01630156  RH  096%=      5-min Rain = 0
KEN1 270602Z 18009KT 17/16 A2987 RMK A01 T01650159  RH  096%=      5-min Rain = 0
KEN1 270603Z 18010KT 17/16 A2987 RMK A01 T01680162  RH  097%=      5-min Rain = 0
KEN1 270604Z 18010KT 17/17 A2987 RMK A01 T01700165  RH  097%=      5-min Rain = 0
KEN1 270605Z 19012KT 17/17 A2987 RMK A01 T01730168  RH  097%=      5-min Rain = 0
KEN1 270606Z 19011KT 18/17 A2987 RMK A01 T01760171  RH  096%=      5-min Rain = 0
KEN1 270607Z 19011KT 18/17 A2987 RMK A01 T01780172  RH  096%=      5-min Rain = 0
KEN1 270608Z 19010KT 18/17 A2987 RMK A01 T01800173  RH  096%=      5-min Rain = 0
KEN1 270609Z 19010KT 18/17 A2987 RMK A01 T01810173  RH  095%=      5-min Rain = 0
KEN1 270610Z 19012KT 18/17 A2987 RMK A01 T01810173  RH  095%=      5-min Rain = 0
KEN1 270611Z 19012KT 18/17 A2987 RMK A01 T01820174  RH  095%=      5-min Rain = 0
KEN1 270612Z 19010KT 18/17 A2987 RMK A01 T01830173  RH  094%=      5-min Rain = 0
KEN1 270613Z 19012KT 18/17 A2987 RMK A01 T01830174  RH  094%=      5-min Rain = 0
KEN1 270614Z 19012KT 18/17 A2987 RMK A01 T01840174  RH  094%=      5-min Rain = 0
KEN1 270615Z 19012KT 18/17 A2987 RMK A01 T01840174  RH  094%=      5-min Rain = 0
KEN1 270616Z 19011KT 18/17 A2987 RMK A01 T01840174  RH  093%=      5-min Rain = 0
KEN1 270617Z 19012KT 18/17 A2987 RMK A01 T01840174  RH  093%=      5-min Rain = 0
KEN1 270618Z 19011KT 19/17 A2987 RMK A01 T01850174  RH  093%=      5-min Rain = 0
KEN1 270619Z 19011KT 19/17 A2987 RMK A01 T01850174  RH  093%=      5-min Rain = 0
KEN1 270620Z 19011KT 18/17 A2987 RMK A01 T01840173  RH  093%=      5-min Rain = 0
KEN1 270621Z 19011KT 18/17 A2987 RMK A01 T01840173  RH  094%=      5-min Rain = 0
KEN1 270622Z 19010KT 18/17 A2987 RMK A01 T01830173  RH  094%=      5-min Rain = 0
KEN1 270623Z 19012KT 18/17 A2987 RMK A01 T01840173  RH  093%=      5-min Rain = 0
KEN1 270624Z 19011KT 18/17 A2987 RMK A01 T01830173  RH  093%=      5-min Rain = 0
KEN1 270625Z 19011KT 18/17 A2987 RMK A01 T01840173  RH  094%=      5-min Rain = 0
KEN1 270626Z 19010KT 18/17 A2987 RMK A01 T01840173  RH  093%=      5-min Rain = 0
KEN1 270627Z 19011KT 18/17 A2987 RMK A01 T01840173  RH  093%=      5-min Rain = 0
KEN1 270628Z 19010KT 18/17 A2987 RMK A01 T01840173  RH  093%=      5-min Rain = 0
KEN1 270629Z 19011KT 18/17 A2987 RMK A01 T01830172  RH  093%=      5-min Rain = 0
KEN1 270630Z 19011KT 18/17 A2987 RMK A01 T01830173  RH  093%=      5-min Rain = 0
KEN1 270631Z 19011KT 18/17 A2987 RMK A01 T01830172  RH  093%=      5-min Rain = 0
KEN1 270632Z 19010KT 18/17 A2987 RMK A01 T01830172  RH  093%=      5-min Rain = 0
KEN1 270633Z 19011KT 18/17 A2987 RMK A01 T01830172  RH  093%=      5-min Rain = 0
KEN1 270634Z 19012KT 18/17 A2987 RMK A01 T01830172  RH  093%=      5-min Rain = 0
KEN1 270635Z 19011KT 18/17 A2987 RMK A01 T01840173  RH  093%=      5-min Rain = 0
KEN1 270636Z 19010KT 18/17 A2987 RMK A01 T01840172  RH  093%=      5-min Rain = 0
KEN1 270637Z 19012KT 18/17 A2987 RMK A01 T01840172  RH  093%=      5-min Rain = 0
KEN1 270638Z 19011KT 19/17 A2987 RMK A01 T01850172  RH  093%=      5-min Rain = 0
KEN1 270639Z 19013KT 19/17 A2987 RMK A01 T01850173  RH  092%=      5-min Rain = 0
KEN1 270640Z 19012KT 19/17 A2987 RMK A01 T01860173  RH  092%=      5-min Rain = 0
KEN1 270641Z 19013KT 19/17 A2987 RMK A01 T01860173  RH  092%=      5-min Rain = 0
KEN1 270642Z 20012KT 19/17 A2987 RMK A01 T01870173  RH  092%=      5-min Rain = 0
KEN1 270643Z 19013KT 19/17 A2987 RMK A01 T01870173  RH  092%=      5-min Rain = 0
KEN1 270644Z 19012KT 19/17 A2987 RMK A01 T01870173  RH  092%=      5-min Rain = 0
KEN1 270645Z 20013KT 19/17 A2987 RMK A01 T01870173  RH  091%=      5-min Rain = 0
KEN1 270646Z 19012KT 19/17 A2987 RMK A01 T01870173  RH  091%=      5-min Rain = 0
KEN1 270647Z 19012KT 19/17 A2987 RMK A01 T01870173  RH  091%=      5-min Rain = 0
KEN1 270648Z 19013KT 19/17 A2987 RMK A01 T01870173  RH  091%=      5-min Rain = 0
KEN1 270649Z 19012KT 19/17 A2987 RMK A01 T01870172  RH  091%=      5-min Rain = 0
KEN1 270650Z 19013KT 19/17 A2987 RMK A01 T01870172  RH  091%=      5-min Rain = 0
KEN1 270651Z 19013KT 19/17 A2987 RMK A01 T01870173  RH  091%=      5-min Rain = 0
KEN1 270652Z 19012KT 19/17 A2987 RMK A01 T01880173  RH  091%=      5-min Rain = 0
KEN1 270653Z 19013KT 19/17 A2987 RMK A01 T01880173  RH  091%=      5-min Rain = 0
KEN1 270654Z 19012KT 19/17 A2987 RMK A01 T01880173  RH  091%=      5-min Rain = 0
KEN1 270655Z 19012KT 19/17 A2987 RMK A01 T01870172  RH  091%=      5-min Rain = 0
KEN1 270656Z 19012KT 19/17 A2987 RMK A01 T01870172  RH  091%=      5-min Rain = 0
KEN1 270657Z 19012KT 19/17 A2987 RMK A01 T01870172  RH  091%=      5-min Rain = 0
KEN1 270658Z 19011KT 19/17 A2987 RMK A01 T01870172  RH  091%=      5-min Rain = 0
KEN1 270659Z 19011KT 19/17 A2987 RMK A01 T01860172  RH  091%=      5-min Rain = 0
KEN1 270700Z 19012KT 19/17 A2987 RMK A01 T01860171  RH  091%=      5-min Rain = 0
KEN1 270701Z 19012KT 19/17 A2987 RMK A01 T01860172  RH  091%=      5-min Rain = 0
KEN1 270702Z 19012KT 19/17 A2987 RMK A01 T01860172  RH  091%=      5-min Rain = 0
KEN1 270703Z 19011KT 19/17 A2987 RMK A01 T01860172  RH  091%=      5-min Rain = 0
KEN1 270704Z 19011KT 19/17 A2987 RMK A01 T01860172  RH  091%=      5-min Rain = 0
KEN1 270705Z 19011KT 19/17 A2987 RMK A01 T01850171  RH  091%=      5-min Rain = 0
KEN1 270706Z 19011KT 19/17 A2987 RMK A01 T01850171  RH  092%=      5-min Rain = 0
KEN1 270707Z 19012KT 19/17 A2987 RMK A01 T01850171  RH  091%=      5-min Rain = 0
KEN1 270708Z 19012KT 19/17 A2987 RMK A01 T01850171  RH  091%=      5-min Rain = 0
KEN1 270709Z 19012KT 19/17 A2987 RMK A01 T01850171  RH  091%=      5-min Rain = 0
KEN1 270710Z 19011KT 19/17 A2987 RMK A01 T01850171  RH  091%=      5-min Rain = 0
KEN1 270711Z 19010KT 19/17 A2987 RMK A01 T01850171  RH  091%=      5-min Rain = 0
KEN1 270712Z 19011KT 18/17 A2987 RMK A01 T01840170  RH  091%=      5-min Rain = 0
KEN1 270713Z 19012KT 18/17 A2987 RMK A01 T01840170  RH  091%=      5-min Rain = 0
KEN1 270714Z 19010KT 19/17 A2987 RMK A01 T01850170  RH  091%=      5-min Rain = 0
KEN1 270715Z 19011KT 19/17 A2987 RMK A01 T01850170  RH  091%=      5-min Rain = 0
KEN1 270716Z 20010KT 19/17 A2987 RMK A01 T01850170  RH  091%=      5-min Rain = 0
KEN1 270717Z 20010KT 18/17 A2987 RMK A01 T01840170  RH  091%=      5-min Rain = 0
KEN1 270718Z 20010KT 18/17 A2987 RMK A01 T01840169  RH  091%=      5-min Rain = 0
KEN1 270719Z 20010KT 18/17 A2987 RMK A01 T01830169  RH  091%=      5-min Rain = 0
KEN1 270720Z 20009KT 18/17 A2987 RMK A01 T01840170  RH  092%=      5-min Rain = 0
KEN1 270721Z 20009KT 18/17 A2987 RMK A01 T01830169  RH  092%=      5-min Rain = 0
KEN1 270722Z 20009KT 18/17 A2986 RMK A01 T01830169  RH  092%=      5-min Rain = 0
KEN1 270723Z 21008KT 18/17 A2986 RMK A01 T01820169  RH  092%=      5-min Rain = 0
KEN1 270724Z 21008KT 18/17 A2986 RMK A01 T01820168  RH  092%=      5-min Rain = 0
KEN1 270725Z 21007KT 18/17 A2986 RMK A01 T01810168  RH  092%=      5-min Rain = 0
KEN1 270726Z 21007KT 18/17 A2986 RMK A01 T01810167  RH  092%=      5-min Rain = 0
KEN1 270727Z 21008KT 18/17 A2986 RMK A01 T01800168  RH  092%=      5-min Rain = 0
KEN1 270728Z 21008KT 18/17 A2987 RMK A01 T01810168  RH  092%=      5-min Rain = 0
KEN1 270729Z 21008KT 18/17 A2987 RMK A01 T01800168  RH  092%=      5-min Rain = 0
KEN1 270730Z 21008KT 18/17 A2987 RMK A01 T01800167  RH  092%=      5-min Rain = 0
KEN1 270731Z 21008KT 18/17 A2987 RMK A01 T01800167  RH  092%=      5-min Rain = 0
KEN1 270732Z 21010KT 18/17 A2987 RMK A01 T01800168  RH  092%=      5-min Rain = 0
KEN1 270733Z 21009KT 18/17 A2987 RMK A01 T01800168  RH  092%=      5-min Rain = 0
KEN1 270734Z 20010KT 18/17 A2986 RMK A01 T01800168  RH  092%=      5-min Rain = 0
KEN1 270735Z 21009KT 18/17 A2986 RMK A01 T01800168  RH  092%=      5-min Rain = 0
KEN1 270736Z 21008KT 18/17 A2986 RMK A01 T01800167  RH  092%=      5-min Rain = 0
KEN1 270737Z 21011KT 18/17 A2986 RMK A01 T01790167  RH  093%=      5-min Rain = 0
KEN1 270738Z 21009KT 18/17 A2986 RMK A01 T01790167  RH  093%=      5-min Rain = 0
KEN1 270739Z 21008KT 18/17 A2986 RMK A01 T01790167  RH  092%=      5-min Rain = 0
KEN1 270740Z 21009KT 18/17 A2986 RMK A01 T01790166  RH  092%=      5-min Rain = 0
KEN1 270741Z 21009KT 18/17 A2986 RMK A01 T01790166  RH  093%=      5-min Rain = 0
KEN1 270742Z 21010KT 18/17 A2986 RMK A01 T01780166  RH  093%=      5-min Rain = 0
KEN1 270743Z 21009KT 18/17 A2986 RMK A01 T01790166  RH  092%=      5-min Rain = 0
KEN1 270744Z 21009KT 18/17 A2986 RMK A01 T01790166  RH  092%=      5-min Rain = 0
KEN1 270745Z 21009KT 18/17 A2986 RMK A01 T01780166  RH  092%=      5-min Rain = 0
KEN1 270746Z 21009KT 18/17 A2986 RMK A01 T01780166  RH  093%=      5-min Rain = 0
KEN1 270747Z 21009KT 18/17 A2986 RMK A01 T01780165  RH  092%=      5-min Rain = 0
KEN1 270748Z 21010KT 18/17 A2986 RMK A01 T01770165  RH  093%=      5-min Rain = 0
KEN1 270749Z 21010KT 18/17 A2986 RMK A01 T01770165  RH  093%=      5-min Rain = 0
KEN1 270750Z 21010KT 18/17 A2986 RMK A01 T01770165  RH  093%=      5-min Rain = 0
KEN1 270751Z 21010KT 18/17 A2986 RMK A01 T01770165  RH  093%=      5-min Rain = 0
KEN1 270752Z 21009KT 18/17 A2986 RMK A01 T01770165  RH  092%=      5-min Rain = 0
KEN1 270753Z 21011KT 18/16 A2986 RMK A01 T01770164  RH  093%=      5-min Rain = 0
KEN1 270754Z 21010KT 18/17 A2986 RMK A01 T01770165  RH  093%=      5-min Rain = 0
KEN1 270755Z 22011KT 18/16 A2986 RMK A01 T01770164  RH  093%=      5-min Rain = 0
KEN1 270756Z 21010KT 18/17 A2987 RMK A01 T01770165  RH  093%=      5-min Rain = 0
KEN1 270757Z 21012KT 18/17 A2987 RMK A01 T01770165  RH  093%=      5-min Rain = 0
KEN1 270758Z 21012KT 18/17 A2986 RMK A01 T01770165  RH  093%=      5-min Rain = 0
KEN1 270759Z 22012KT 18/17 A2986 RMK A01 T01780166  RH  093%=      5-min Rain = 0
KEN1 270800Z 22012KT 18/17 A2986 RMK A01 T01790166  RH  092%=      5-min Rain = 0
KEN1 270801Z 22012KT 18/17 A2986 RMK A01 T01790166  RH  092%=      5-min Rain = 0
KEN1 270802Z 21011KT 18/17 A2986 RMK A01 T01790165  RH  092%=      5-min Rain = 0
KEN1 270803Z 21013KT 18/17 A2986 RMK A01 T01790166  RH  092%=      5-min Rain = 0
KEN1 270804Z 21012KT 18/17 A2986 RMK A01 T01790165  RH  092%=      5-min Rain = 0
KEN1 270805Z 21011KT 18/17 A2986 RMK A01 T01790165  RH  091%=      5-min Rain = 0
KEN1 270806Z 21011KT 18/16 A2986 RMK A01 T01780164  RH  092%=      5-min Rain = 0
KEN1 270807Z 21011KT 18/16 A2986 RMK A01 T01780164  RH  092%=      5-min Rain = 0
KEN1 270808Z 21011KT 18/16 A2986 RMK A01 T01770164  RH  092%=      5-min Rain = 0
KEN1 270809Z 21011KT 18/16 A2986 RMK A01 T01770164  RH  092%=      5-min Rain = 0
KEN1 270810Z 21011KT 18/16 A2986 RMK A01 T01770164  RH  092%=      5-min Rain = 0
KEN1 270811Z 21011KT 18/16 A2986 RMK A01 T01770164  RH  092%=      5-min Rain = 0
KEN1 270812Z 21012KT 18/16 A2986 RMK A01 T01770164  RH  092%=      5-min Rain = 0
KEN1 270813Z 21011KT 18/16 A2986 RMK A01 T01770164  RH  092%=      5-min Rain = 0
KEN1 270814Z 21011KT 18/16 A2986 RMK A01 T01770164  RH  092%=      5-min Rain = 0
KEN1 270815Z 21011KT 18/16 A2986 RMK A01 T01760163  RH  092%=      5-min Rain = 0
KEN1 270816Z 21011KT 18/16 A2986 RMK A01 T01760163  RH  092%=      5-min Rain = 0
KEN1 270817Z 21011KT 18/16 A2986 RMK A01 T01760163  RH  092%=      5-min Rain = 0
KEN1 270818Z 21011KT 18/16 A2986 RMK A01 T01760163  RH  092%=      5-min Rain = 0
KEN1 270819Z 22010KT 18/16 A2986 RMK A01 T01760163  RH  092%=      5-min Rain = 0
KEN1 270820Z 22010KT 18/16 A2986 RMK A01 T01760163  RH  092%=      5-min Rain = 0
KEN1 270821Z 22010KT 18/16 A2986 RMK A01 T01750162  RH  092%=      5-min Rain = 0
KEN1 270822Z 22010KT 18/16 A2986 RMK A01 T01750162  RH  092%=      5-min Rain = 0
KEN1 270823Z 22010KT 18/16 A2986 RMK A01 T01750162  RH  092%=      5-min Rain = 0
KEN1 270824Z 22010KT 18/16 A2986 RMK A01 T01750162  RH  092%=      5-min Rain = 0
KEN1 270825Z 22010KT 17/16 A2986 RMK A01 T01740161  RH  092%=      5-min Rain = 0
KEN1 270826Z 23009KT 17/16 A2986 RMK A01 T01740161  RH  092%=      5-min Rain = 0
KEN1 270827Z 23009KT 17/16 A2985 RMK A01 T01740161  RH  092%=      5-min Rain = 0
KEN1 270828Z 23008KT 17/16 A2985 RMK A01 T01740160  RH  092%=      5-min Rain = 0
KEN1 270829Z 23009KT 17/16 A2985 RMK A01 T01730160  RH  092%=      5-min Rain = 0
KEN1 270830Z 24008KT 17/16 A2985 RMK A01 T01720159  RH  092%=      5-min Rain = 0
KEN1 270831Z 26006KT 17/16 A2985 RMK A01 T01720158  RH  092%=      5-min Rain = 0
KEN1 270832Z 29005KT 17/16 A2986 RMK A01 T01700157  RH  092%=      5-min Rain = 0
KEN1 270833Z 31003KT 17/16 A2986 RMK A01 T01680155  RH  092%=      5-min Rain = 0
KEN1 270834Z 32003KT 17/16 A2986 RMK A01 T01670155  RH  093%=      5-min Rain = 0
KEN1 270835Z 28001KT 17/15 A2986 RMK A01 T01650154  RH  093%=      5-min Rain = 0
KEN1 270836Z 23001KT 17/15 A2985 RMK A01 T01650154  RH  094%=      5-min Rain = 0
KEN1 270837Z 23003KT 17/16 A2985 RMK A01 T01650156  RH  094%=      5-min Rain = 0
KEN1 270838Z 22003KT 17/16 A2985 RMK A01 T01650156  RH  095%=      5-min Rain = 0
KEN1 270839Z 21003KT 16/16 A2985 RMK A01 T01640157  RH  095%=      5-min Rain = 0
KEN1 270840Z 23003KT 16/16 A2985 RMK A01 T01640156  RH  095%=      5-min Rain = 0
KEN1 270841Z 24003KT 16/16 A2985 RMK A01 T01630155  RH  095%=      5-min Rain = 0
KEN1 270842Z 24002KT 16/15 A2985 RMK A01 T01620154  RH  095%=      5-min Rain = 0
KEN1 270843Z 21002KT 16/15 A2985 RMK A01 T01620154  RH  095%=      5-min Rain = 0
KEN1 270844Z 19003KT 16/15 A2986 RMK A01 T01610153  RH  095%=      5-min Rain = 0
KEN1 270845Z 19003KT 16/15 A2986 RMK A01 T01610152  RH  095%=      5-min Rain = 0
KEN1 270846Z 19004KT 16/15 A2986 RMK A01 T01600152  RH  095%=      5-min Rain = 0
KEN1 270847Z 21004KT 16/15 A2986 RMK A01 T01600152  RH  095%=      5-min Rain = 0
KEN1 270848Z 20005KT 16/15 A2986 RMK A01 T01600153  RH  096%=      5-min Rain = 0
KEN1 270849Z 20004KT 16/15 A2986 RMK A01 T01610153  RH  095%=      5-min Rain = 0
KEN1 270850Z 21004KT 16/15 A2986 RMK A01 T01620154  RH  095%=      5-min Rain = 0
KEN1 270851Z 20004KT 16/15 A2986 RMK A01 T01620154  RH  095%=      5-min Rain = 0
KEN1 270852Z 19004KT 16/15 A2986 RMK A01 T01630153  RH  094%=      5-min Rain = 0
KEN1 270853Z 20007KT 16/15 A2986 RMK A01 T01630153  RH  094%=      5-min Rain = 0
KEN1 270854Z 18007KT 16/15 A2986 RMK A01 T01640154  RH  094%=      5-min Rain = 0
KEN1 270855Z 19006KT 17/16 A2986 RMK A01 T01660155  RH  093%=      5-min Rain = 0
KEN1 270856Z 20005KT 17/15 A2986 RMK A01 T01670154  RH  092%=      5-min Rain = 0
KEN1 270857Z 20006KT 17/15 A2986 RMK A01 T01670154  RH  092%=      5-min Rain = 0
KEN1 270858Z 20006KT 17/15 A2986 RMK A01 T01670154  RH  092%=      5-min Rain = 0
KEN1 270859Z 20007KT 17/15 A2986 RMK A01 T01660154  RH  092%=      5-min Rain = 0
KEN1 270900Z 20006KT 17/16 A2986 RMK A01 T01670156  RH  093%=      5-min Rain = 0
KEN1 270901Z 21006KT 17/16 A2986 RMK A01 T01680156  RH  093%=      5-min Rain = 0
KEN1 270902Z 22005KT 17/16 A2986 RMK A01 T01680156  RH  092%=      5-min Rain = 0
KEN1 270903Z 23005KT 17/16 A2986 RMK A01 T01670155  RH  092%=      5-min Rain = 0
KEN1 270904Z 23005KT 17/16 A2986 RMK A01 T01670155  RH  092%=      5-min Rain = 0
KEN1 270905Z 23005KT 17/15 A2986 RMK A01 T01660154  RH  092%=      5-min Rain = 0
KEN1 270906Z 22006KT 17/15 A2986 RMK A01 T01650153  RH  092%=      5-min Rain = 0
KEN1 270907Z 21007KT 16/15 A2986 RMK A01 T01640153  RH  093%=      5-min Rain = 0
KEN1 270908Z 21006KT 16/15 A2986 RMK A01 T01640153  RH  093%=      5-min Rain = 0
KEN1 270909Z 22006KT 16/15 A2986 RMK A01 T01640153  RH  093%=      5-min Rain = 0
KEN1 270910Z 22006KT 16/15 A2986 RMK A01 T01630153  RH  093%=      5-min Rain = 0
KEN1 270911Z 22005KT 16/15 A2986 RMK A01 T01630152  RH  093%=      5-min Rain = 0
KEN1 270912Z 22006KT 16/15 A2986 RMK A01 T01620152  RH  094%=      5-min Rain = 0
KEN1 270913Z 22006KT 16/15 A2986 RMK A01 T01620152  RH  094%=      5-min Rain = 0
KEN1 270914Z 22006KT 16/15 A2986 RMK A01 T01610151  RH  094%=      5-min Rain = 0
KEN1 270915Z 22006KT 16/15 A2986 RMK A01 T01610150  RH  094%=      5-min Rain = 0
KEN1 270916Z 22006KT 16/15 A2986 RMK A01 T01600149  RH  094%=      5-min Rain = 0
KEN1 270917Z 22006KT 16/15 A2986 RMK A01 T01590149  RH  094%=      5-min Rain = 0
KEN1 270918Z 22006KT 16/15 A2986 RMK A01 T01580149  RH  094%=      5-min Rain = 0
KEN1 270919Z 22006KT 16/15 A2987 RMK A01 T01580148  RH  094%=      5-min Rain = 0
KEN1 270920Z 22006KT 16/15 A2986 RMK A01 T01580149  RH  094%=      5-min Rain = 0
KEN1 270921Z 22006KT 16/15 A2986 RMK A01 T01580149  RH  095%=      5-min Rain = 0
KEN1 270922Z 22006KT 16/15 A2986 RMK A01 T01570149  RH  095%=      5-min Rain = 0
KEN1 270923Z 22007KT 16/15 A2986 RMK A01 T01580149  RH  095%=      5-min Rain = 0
KEN1 270924Z 22006KT 16/15 A2986 RMK A01 T01570149  RH  095%=      5-min Rain = 0
KEN1 270925Z 22007KT 16/15 A2986 RMK A01 T01570149  RH  095%=      5-min Rain = 0
KEN1 270926Z 22006KT 16/15 A2986 RMK A01 T01580150  RH  095%=      5-min Rain = 0
KEN1 270927Z 23006KT 16/15 A2986 RMK A01 T01580150  RH  095%=      5-min Rain = 0
KEN1 270928Z 22006KT 16/15 A2986 RMK A01 T01580150  RH  095%=      5-min Rain = 0
KEN1 270929Z 22006KT 16/15 A2986 RMK A01 T01580149  RH  094%=      5-min Rain = 0
KEN1 270930Z 22007KT 16/15 A2986 RMK A01 T01570148  RH  094%=      5-min Rain = 0
KEN1 270931Z 22006KT 16/15 A2986 RMK A01 T01560147  RH  094%=      5-min Rain = 0
KEN1 270932Z 21006KT 16/15 A2986 RMK A01 T01560146  RH  094%=      5-min Rain = 0
KEN1 270933Z 21006KT 16/15 A2986 RMK A01 T01550146  RH  094%=      5-min Rain = 0
KEN1 270934Z 21006KT 15/15 A2986 RMK A01 T01540145  RH  095%=      5-min Rain = 0
KEN1 270935Z 21006KT 15/15 A2987 RMK A01 T01530145  RH  095%=      5-min Rain = 0
KEN1 270936Z 21006KT 15/15 A2986 RMK A01 T01520145  RH  095%=      5-min Rain = 0
KEN1 270937Z 21006KT 15/15 A2986 RMK A01 T01520145  RH  096%=      5-min Rain = 0
KEN1 270938Z 21006KT 15/15 A2986 RMK A01 T01520146  RH  096%=      5-min Rain = 0
KEN1 270939Z 21005KT 15/15 A2986 RMK A01 T01520146  RH  096%=      5-min Rain = 0
KEN1 270940Z 21006KT 15/15 A2986 RMK A01 T01520147  RH  096%=      5-min Rain = 0
KEN1 270941Z 21006KT 15/15 A2986 RMK A01 T01520147  RH  096%=      5-min Rain = 0
KEN1 270942Z 21006KT 15/15 A2986 RMK A01 T01520147  RH  096%=      5-min Rain = 0
KEN1 270943Z 21006KT 15/15 A2986 RMK A01 T01520147  RH  096%=      5-min Rain = 0
KEN1 270944Z 21006KT 15/15 A2986 RMK A01 T01520146  RH  097%=      5-min Rain = 0
KEN1 270945Z 21006KT 15/15 A2986 RMK A01 T01520147  RH  097%=      5-min Rain = 0
KEN1 270946Z 20005KT 15/15 A2987 RMK A01 T01520147  RH  097%=      5-min Rain = 0
KEN1 270947Z 20005KT 15/15 A2987 RMK A01 T01520147  RH  097%=      5-min Rain = 0
KEN1 270948Z 20006KT 15/15 A2987 RMK A01 T01520147  RH  097%=      5-min Rain = 0
KEN1 270949Z 19006KT 15/15 A2987 RMK A01 T01520146  RH  097%=      5-min Rain = 0
KEN1 270950Z 20006KT 15/15 A2987 RMK A01 T01520146  RH  097%=      5-min Rain = 0
KEN1 270951Z 20006KT 15/15 A2987 RMK A01 T01520147  RH  097%=      5-min Rain = 0
KEN1 270952Z 21007KT 15/15 A2987 RMK A01 T01520148  RH  097%=      5-min Rain = 0
KEN1 270953Z 21007KT 15/15 A2987 RMK A01 T01530149  RH  097%=      5-min Rain = 0
KEN1 270954Z 21007KT 15/15 A2987 RMK A01 T01540149  RH  097%=      5-min Rain = 0
KEN1 270955Z 21006KT 15/15 A2987 RMK A01 T01540148  RH  097%=      5-min Rain = 0
KEN1 270956Z 21006KT 15/15 A2987 RMK A01 T01530148  RH  096%=      5-min Rain = 0
KEN1 270957Z 21006KT 15/15 A2987 RMK A01 T01530148  RH  096%=      5-min Rain = 0
KEN1 270958Z 21005KT 15/15 A2987 RMK A01 T01530147  RH  096%=      5-min Rain = 0
KEN1 270959Z 20005KT 15/15 A2987 RMK A01 T01530147  RH  096%=      5-min Rain = 0
KEN1 271000Z 19005KT 15/15 A2987 RMK A01 T01520147  RH  096%=      5-min Rain = 0
KEN1 271001Z 18004KT 15/15 A2987 RMK A01 T01520146  RH  096%=      5-min Rain = 0
KEN1 271002Z 16004KT 15/15 A2987 RMK A01 T01510145  RH  096%=      5-min Rain = 0
KEN1 271003Z 16005KT 15/15 A2988 RMK A01 T01510145  RH  097%=      5-min Rain = 0
KEN1 271004Z 16005KT 15/15 A2988 RMK A01 T01510146  RH  097%=      5-min Rain = 0
KEN1 271005Z 15004KT 15/15 A2988 RMK A01 T01520147  RH  097%=      5-min Rain = 0
KEN1 271006Z 15004KT 15/15 A2988 RMK A01 T01520147  RH  097%=      5-min Rain = 0
KEN1 271007Z 15004KT 15/15 A2988 RMK A01 T01510146  RH  097%=      5-min Rain = 0
KEN1 271008Z 14003KT 15/15 A2988 RMK A01 T01510146  RH  097%=      5-min Rain = 0
KEN1 271009Z 14002KT 15/15 A2987 RMK A01 T01510146  RH  097%=      5-min Rain = 0
KEN1 271010Z 16001KT 15/15 A2987 RMK A01 T01500145  RH  097%=      5-min Rain = 0
KEN1 271011Z 20001KT 15/15 A2987 RMK A01 T01500146  RH  097%=      5-min Rain = 0
KEN1 271012Z 20002KT 15/15 A2987 RMK A01 T01510146  RH  097%=      5-min Rain = 0
KEN1 271013Z 22002KT 15/15 A2987 RMK A01 T01510147  RH  097%=      5-min Rain = 0
KEN1 271014Z 22005KT 15/15 A2987 RMK A01 T01530149  RH  098%=      5-min Rain = 0
KEN1 271015Z 20005KT 15/15 A2987 RMK A01 T01540150  RH  098%=      5-min Rain = 0
KEN1 271016Z 21005KT 16/15 A2987 RMK A01 T01550151  RH  097%=      5-min Rain = 0
KEN1 271017Z 20007KT 16/15 A2987 RMK A01 T01550150  RH  097%=      5-min Rain = 0
KEN1 271018Z 20006KT 16/15 A2987 RMK A01 T01560150  RH  097%=      5-min Rain = 0
KEN1 271019Z 20007KT 16/15 A2987 RMK A01 T01550149  RH  096%=      5-min Rain = 0
KEN1 271020Z 20007KT 16/15 A2987 RMK A01 T01560149  RH  096%=      5-min Rain = 0
KEN1 271021Z 20008KT 16/15 A2987 RMK A01 T01550149  RH  096%=      5-min Rain = 0
KEN1 271022Z 21007KT 16/15 A2987 RMK A01 T01560149  RH  096%=      5-min Rain = 0
KEN1 271023Z 21007KT 16/15 A2987 RMK A01 T01560149  RH  096%=      5-min Rain = 0
KEN1 271024Z 21006KT 16/15 A2987 RMK A01 T01550149  RH  096%=      5-min Rain = 0
KEN1 271025Z 21007KT 16/15 A2987 RMK A01 T01560149  RH  096%=      5-min Rain = 0
KEN1 271026Z 21009KT 16/15 A2987 RMK A01 T01560149  RH  096%=      5-min Rain = 0
KEN1 271027Z 21006KT 16/15 A2987 RMK A01 T01560149  RH  096%=      5-min Rain = 0
KEN1 271028Z 22005KT 16/15 A2987 RMK A01 T01560149  RH  096%=      5-min Rain = 0
KEN1 271029Z 21005KT 16/15 A2987 RMK A01 T01560149  RH  095%=      5-min Rain = 0
KEN1 271030Z 21005KT 16/15 A2987 RMK A01 T01550147  RH  095%=      5-min Rain = 0
KEN1 271031Z 20006KT 15/15 A2987 RMK A01 T01540146  RH  095%=      5-min Rain = 0
KEN1 271032Z 20006KT 15/15 A2987 RMK A01 T01530146  RH  096%=      5-min Rain = 0
KEN1 271033Z 20005KT 15/15 A2987 RMK A01 T01530147  RH  096%=      5-min Rain = 0
KEN1 271034Z 20006KT 15/15 A2987 RMK A01 T01530146  RH  096%=      5-min Rain = 0
KEN1 271035Z 20006KT 15/15 A2987 RMK A01 T01520146  RH  096%=      5-min Rain = 0
KEN1 271036Z 20006KT 15/15 A2987 RMK A01 T01520146  RH  096%=      5-min Rain = 0
KEN1 271037Z 21007KT 15/15 A2987 RMK A01 T01520146  RH  096%=      5-min Rain = 0
KEN1 271038Z 21007KT 15/15 A2987 RMK A01 T01520145  RH  096%=      5-min Rain = 0
KEN1 271039Z 22007KT 15/15 A2987 RMK A01 T01520146  RH  096%=      5-min Rain = 0
KEN1 271040Z 22007KT 15/15 A2987 RMK A01 T01520145  RH  096%=      5-min Rain = 0
KEN1 271041Z 22006KT 15/15 A2987 RMK A01 T01520145  RH  096%=      5-min Rain = 0
KEN1 271042Z 23006KT 15/14 A2987 RMK A01 T01510144  RH  095%=      5-min Rain = 0
KEN1 271043Z 23006KT 15/14 A2987 RMK A01 T01500143  RH  095%=      5-min Rain = 0
KEN1 271044Z 23005KT 15/14 A2987 RMK A01 T01500142  RH  095%=      5-min Rain = 0
KEN1 271045Z 23005KT 15/14 A2987 RMK A01 T01490142  RH  096%=      5-min Rain = 0
KEN1 271046Z 23006KT 15/14 A2987 RMK A01 T01480142  RH  096%=      5-min Rain = 0
KEN1 271047Z 22006KT 15/14 A2987 RMK A01 T01470141  RH  096%=      5-min Rain = 0
KEN1 271048Z 22006KT 15/14 A2987 RMK A01 T01470140  RH  096%=      5-min Rain = 0
KEN1 271049Z 22007KT 15/14 A2987 RMK A01 T01460140  RH  096%=      5-min Rain = 0
KEN1 271050Z 22007KT 15/14 A2987 RMK A01 T01460140  RH  096%=      5-min Rain = 0
KEN1 271051Z 21007KT 15/14 A2988 RMK A01 T01460140  RH  096%=      5-min Rain = 0
KEN1 271052Z 21007KT 15/14 A2988 RMK A01 T01460140  RH  096%=      5-min Rain = 0
KEN1 271053Z 21007KT 15/14 A2988 RMK A01 T01460140  RH  096%=      5-min Rain = 0
KEN1 271054Z 22006KT 15/14 A2988 RMK A01 T01450139  RH  096%=      5-min Rain = 0
KEN1 271055Z 22006KT 14/14 A2988 RMK A01 T01440138  RH  096%=      5-min Rain = 0
KEN1 271056Z 22006KT 14/14 A2988 RMK A01 T01440138  RH  096%=      5-min Rain = 0
KEN1 271057Z 22006KT 14/14 A2988 RMK A01 T01440139  RH  097%=      5-min Rain = 0
KEN1 271058Z 22006KT 14/14 A2988 RMK A01 T01440139  RH  097%=      5-min Rain = 0
KEN1 271059Z 22006KT 14/14 A2988 RMK A01 T01440139  RH  097%=      5-min Rain = 0
KEN1 271100Z 23006KT 14/14 A2988 RMK A01 T01440139  RH  097%=      5-min Rain = 0
KEN1 271101Z 23006KT 14/14 A2988 RMK A01 T01440138  RH  097%=      5-min Rain = 0
KEN1 271102Z 22006KT 14/14 A2988 RMK A01 T01440138  RH  097%=      5-min Rain = 0
KEN1 271103Z 22006KT 14/14 A2988 RMK A01 T01430138  RH  097%=      5-min Rain = 0
KEN1 271104Z 22005KT 14/14 A2988 RMK A01 T01430138  RH  096%=      5-min Rain = 0
KEN1 271105Z 22005KT 14/14 A2988 RMK A01 T01430137  RH  096%=      5-min Rain = 0
KEN1 271106Z 22005KT 14/14 A2988 RMK A01 T01420137  RH  096%=      5-min Rain = 0
KEN1 271107Z 22006KT 14/14 A2988 RMK A01 T01420136  RH  096%=      5-min Rain = 0
KEN1 271108Z 21006KT 14/14 A2988 RMK A01 T01420136  RH  096%=      5-min Rain = 0
KEN1 271109Z 21006KT 14/14 A2988 RMK A01 T01410135  RH  096%=      5-min Rain = 0
KEN1 271110Z 21006KT 14/14 A2988 RMK A01 T01410136  RH  096%=      5-min Rain = 0
KEN1 271111Z 21006KT 14/14 A2988 RMK A01 T01410136  RH  096%=      5-min Rain = 0
KEN1 271112Z 21005KT 14/14 A2988 RMK A01 T01410135  RH  096%=      5-min Rain = 0
KEN1 271113Z 20006KT 14/14 A2988 RMK A01 T01410136  RH  096%=      5-min Rain = 0
KEN1 271114Z 20005KT 14/14 A2988 RMK A01 T01410135  RH  096%=      5-min Rain = 0
KEN1 271115Z 20005KT 14/14 A2988 RMK A01 T01410136  RH  096%=      5-min Rain = 0
KEN1 271116Z 19006KT 14/14 A2988 RMK A01 T01410135  RH  096%=      5-min Rain = 0
KEN1 271117Z 19006KT 14/14 A2988 RMK A01 T01410135  RH  096%=      5-min Rain = 0
KEN1 271118Z 19005KT 14/14 A2988 RMK A01 T01410135  RH  096%=      5-min Rain = 0
KEN1 271119Z 19006KT 14/14 A2988 RMK A01 T01410135  RH  096%=      5-min Rain = 0
KEN1 271120Z 19006KT 14/13 A2988 RMK A01 T01410134  RH  096%=      5-min Rain = 0
KEN1 271121Z 19006KT 14/13 A2988 RMK A01 T01400133  RH  096%=      5-min Rain = 0
KEN1 271122Z 19006KT 14/13 A2988 RMK A01 T01400133  RH  096%=      5-min Rain = 0
KEN1 271123Z 19007KT 14/13 A2988 RMK A01 T01400133  RH  096%=      5-min Rain = 0
KEN1 271124Z 19007KT 14/13 A2988 RMK A01 T01400133  RH  096%=      5-min Rain = 0.01
KEN1 271125Z 19007KT 14/13 A2988 RMK A01 T01400133  RH  096%=      5-min Rain = 0
KEN1 271126Z 19006KT 14/13 A2988 RMK A01 T01400134  RH  096%=      5-min Rain = 0
KEN1 271127Z 19007KT 14/13 A2988 RMK A01 T01410134  RH  096%=      5-min Rain = 0
KEN1 271128Z 19007KT 14/13 A2988 RMK A01 T01410134  RH  095%=      5-min Rain = 0
KEN1 271129Z 20007KT 14/13 A2988 RMK A01 T01410133  RH  095%=      5-min Rain = 0
KEN1 271130Z 20007KT 14/13 A2988 RMK A01 T01410134  RH  095%=      5-min Rain = 0
KEN1 271131Z 20007KT 14/13 A2988 RMK A01 T01420134  RH  095%=      5-min Rain = 0
KEN1 271132Z 20007KT 14/14 A2988 RMK A01 T01420135  RH  095%=      5-min Rain = 0
KEN1 271133Z 20008KT 14/13 A2988 RMK A01 T01420134  RH  095%=      5-min Rain = 0
KEN1 271134Z 20008KT 14/13 A2988 RMK A01 T01420133  RH  095%=      5-min Rain = 0
KEN1 271135Z 20007KT 14/13 A2988 RMK A01 T01420133  RH  095%=      5-min Rain = 0
KEN1 271136Z 20007KT 14/13 A2988 RMK A01 T01420133  RH  095%=      5-min Rain = 0
KEN1 271137Z 20008KT 14/13 A2988 RMK A01 T01420133  RH  095%=      5-min Rain = 0
KEN1 271138Z 20008KT 14/13 A2988 RMK A01 T01420133  RH  095%=      5-min Rain = 0
KEN1 271139Z 21007KT 14/13 A2988 RMK A01 T01410133  RH  095%=      5-min Rain = 0
KEN1 271140Z 20007KT 14/13 A2988 RMK A01 T01410133  RH  095%=      5-min Rain = 0
KEN1 271141Z 20007KT 14/13 A2988 RMK A01 T01410133  RH  095%=      5-min Rain = 0
KEN1 271142Z 21007KT 14/13 A2988 RMK A01 T01410132  RH  095%=      5-min Rain = 0
KEN1 271143Z 21007KT 14/13 A2988 RMK A01 T01400132  RH  095%=      5-min Rain = 0
KEN1 271144Z 21007KT 14/13 A2989 RMK A01 T01400131  RH  095%=      5-min Rain = 0
KEN1 271145Z 20007KT 14/13 A2989 RMK A01 T01400131  RH  095%=      5-min Rain = 0
KEN1 271146Z 20007KT 14/13 A2989 RMK A01 T01400131  RH  095%=      5-min Rain = 0
KEN1 271147Z 20007KT 14/13 A2989 RMK A01 T01400131  RH  095%=      5-min Rain = 0
KEN1 271148Z 20006KT 14/13 A2989 RMK A01 T01390131  RH  095%=      5-min Rain = 0
KEN1 271149Z 19007KT 14/13 A2989 RMK A01 T01390130  RH  094%=      5-min Rain = 0
KEN1 271150Z 19007KT 14/13 A2989 RMK A01 T01380129  RH  094%=      5-min Rain = 0
KEN1 271151Z 19006KT 14/13 A2989 RMK A01 T01370129  RH  095%=      5-min Rain = 0
KEN1 271152Z 17006KT 14/13 A2989 RMK A01 T01370129  RH  095%=      5-min Rain = 0
KEN1 271153Z 17005KT 14/13 A2989 RMK A01 T01360128  RH  095%=      5-min Rain = 0
KEN1 271154Z 17005KT 14/13 A2989 RMK A01 T01360128  RH  095%=      5-min Rain = 0
KEN1 271155Z 18005KT 14/13 A2989 RMK A01 T01370131  RH  096%=      5-min Rain = 0
KEN1 271156Z 19005KT 14/13 A2989 RMK A01 T01390132  RH  096%=      5-min Rain = 0
KEN1 271157Z 19005KT 14/13 A2989 RMK A01 T01400133  RH  095%=      5-min Rain = 0
KEN1 271158Z 20005KT 14/13 A2989 RMK A01 T01400132  RH  095%=      5-min Rain = 0
KEN1 271159Z 20006KT 14/13 A2989 RMK A01 T01410133  RH  095%=      5-min Rain = 0
KEN1 271200Z 19005KT 14/13 A2989 RMK A01 T01410133  RH  095%=      5-min Rain = 0
KEN1 271201Z 19006KT 14/13 A2989 RMK A01 T01410132  RH  094%=      5-min Rain = 0
KEN1 271202Z 19006KT 14/13 A2989 RMK A01 T01420133  RH  094%=      5-min Rain = 0
KEN1 271203Z 19006KT 14/13 A2989 RMK A01 T01430133  RH  094%=      5-min Rain = 0
KEN1 271204Z 19005KT 14/13 A2989 RMK A01 T01430132  RH  093%=      5-min Rain = 0
KEN1 271205Z 18005KT 14/13 A2989 RMK A01 T01420131  RH  093%=      5-min Rain = 0
KEN1 271206Z 18006KT 14/13 A2989 RMK A01 T01420131  RH  093%=      5-min Rain = 0
KEN1 271207Z 18006KT 14/13 A2989 RMK A01 T01420131  RH  093%=      5-min Rain = 0
KEN1 271208Z 17005KT 14/13 A2989 RMK A01 T01430132  RH  093%=      5-min Rain = 0
KEN1 271209Z 17005KT 14/13 A2989 RMK A01 T01440132  RH  092%=      5-min Rain = 0
KEN1 271210Z 16005KT 14/13 A2989 RMK A01 T01440131  RH  092%=      5-min Rain = 0
KEN1 271211Z 16005KT 14/13 A2989 RMK A01 T01440132  RH  092%=      5-min Rain = 0
KEN1 271212Z 16005KT 14/13 A2989 RMK A01 T01440132  RH  092%=      5-min Rain = 0
KEN1 271213Z 16005KT 14/13 A2989 RMK A01 T01440131  RH  092%=      5-min Rain = 0
KEN1 271214Z 16005KT 14/13 A2989 RMK A01 T01440130  RH  092%=      5-min Rain = 0
KEN1 271215Z 17004KT 15/13 A2989 RMK A01 T01450131  RH  091%=      5-min Rain = 0
KEN1 271216Z 16004KT 15/13 A2989 RMK A01 T01460131  RH  091%=      5-min Rain = 0
KEN1 271217Z 16004KT 15/13 A2989 RMK A01 T01470131  RH  091%=      5-min Rain = 0
KEN1 271218Z 17004KT 15/13 A2989 RMK A01 T01480132  RH  090%=      5-min Rain = 0
KEN1 271219Z 18005KT 15/13 A2989 RMK A01 T01500133  RH  089%=      5-min Rain = 0
KEN1 271220Z 17006KT 15/13 A2989 RMK A01 T01530134  RH  088%=      5-min Rain = 0
KEN1 271221Z 17007KT 16/13 A2989 RMK A01 T01550134  RH  087%=      5-min Rain = 0
KEN1 271222Z 18005KT 16/13 A2989 RMK A01 T01570134  RH  086%=      5-min Rain = 0
KEN1 271223Z 18005KT 16/13 A2989 RMK A01 T01580134  RH  086%=      5-min Rain = 0
KEN1 271224Z 19006KT 16/13 A2989 RMK A01 T01580134  RH  086%=      5-min Rain = 0
KEN1 271225Z 18005KT 16/13 A2989 RMK A01 T01580134  RH  086%=      5-min Rain = 0
KEN1 271226Z 19005KT 16/13 A2989 RMK A01 T01580134  RH  086%=      5-min Rain = 0
KEN1 271227Z 18006KT 16/13 A2989 RMK A01 T01580134  RH  086%=      5-min Rain = 0
KEN1 271228Z 19005KT 16/13 A2989 RMK A01 T01570134  RH  086%=      5-min Rain = 0
KEN1 271229Z 18006KT 16/14 A2989 RMK A01 T01570135  RH  087%=      5-min Rain = 0
KEN1 271230Z 18005KT 16/14 A2989 RMK A01 T01570135  RH  087%=      5-min Rain = 0
KEN1 271231Z 18004KT 16/14 A2989 RMK A01 T01570135  RH  087%=      5-min Rain = 0
KEN1 271232Z 19004KT 16/14 A2989 RMK A01 T01560135  RH  087%=      5-min Rain = 0
KEN1 271233Z 17004KT 16/14 A2989 RMK A01 T01560135  RH  087%=      5-min Rain = 0
KEN1 271234Z 18003KT 16/13 A2989 RMK A01 T01560134  RH  087%=      5-min Rain = 0
KEN1 271235Z 19004KT 16/13 A2989 RMK A01 T01560134  RH  087%=      5-min Rain = 0
KEN1 271236Z 19004KT 16/13 A2989 RMK A01 T01560133  RH  086%=      5-min Rain = 0
KEN1 271237Z 19004KT 16/13 A2989 RMK A01 T01560134  RH  086%=      5-min Rain = 0
KEN1 271238Z 18004KT 16/13 A2989 RMK A01 T01570134  RH  086%=      5-min Rain = 0
KEN1 271239Z 19005KT 16/13 A2989 RMK A01 T01580134  RH  086%=      5-min Rain = 0
KEN1 271240Z 18003KT 16/13 A2989 RMK A01 T01580134  RH  086%=      5-min Rain = 0
KEN1 271241Z 18003KT 16/14 A2989 RMK A01 T01580135  RH  086%=      5-min Rain = 0
KEN1 271242Z 18003KT 16/14 A299 RMK A01 T01580135  RH  086%=      5-min Rain = 0
KEN1 271243Z 17004KT 16/14 A299 RMK A01 T01590136  RH  086%=      5-min Rain = 0
KEN1 271244Z 16003KT 16/14 A299 RMK A01 T01590136  RH  086%=      5-min Rain = 0
KEN1 271245Z 17003KT 16/14 A299 RMK A01 T01590136  RH  086%=      5-min Rain = 0
KEN1 271246Z 18003KT 16/14 A299 RMK A01 T01600137  RH  086%=      5-min Rain = 0
KEN1 271247Z 18003KT 16/14 A299 RMK A01 T01600137  RH  086%=      5-min Rain = 0
KEN1 271248Z 18003KT 16/14 A299 RMK A01 T01600137  RH  086%=      5-min Rain = 0
KEN1 271249Z 19002KT 16/14 A299 RMK A01 T01600138  RH  086%=      5-min Rain = 0
KEN1 271250Z 19002KT 16/14 A299 RMK A01 T01610139  RH  087%=      5-min Rain = 0
KEN1 271251Z 21002KT 16/14 A299 RMK A01 T01610138  RH  086%=      5-min Rain = 0
KEN1 271252Z 20002KT 16/14 A299 RMK A01 T01620139  RH  087%=      5-min Rain = 0
KEN1 271253Z 20002KT 16/14 A299 RMK A01 T01620140  RH  087%=      5-min Rain = 0
KEN1 271254Z 20004KT 16/14 A299 RMK A01 T01620141  RH  087%=      5-min Rain = 0
KEN1 271255Z 20005KT 16/14 A299 RMK A01 T01620140  RH  087%=      5-min Rain = 0
KEN1 271256Z 19004KT 16/14 A299 RMK A01 T01620142  RH  088%=      5-min Rain = 0
KEN1 271257Z 19005KT 16/14 A299 RMK A01 T01630144  RH  089%=      5-min Rain = 0
KEN1 271258Z 18006KT 16/14 A299 RMK A01 T01630144  RH  089%=      5-min Rain = 0
KEN1 271259Z 18006KT 16/14 A299 RMK A01 T01630144  RH  088%=      5-min Rain = 0
KEN1 271300Z 18006KT 16/15 A299 RMK A01 T01640145  RH  088%=      5-min Rain = 0
KEN1 271301Z 17006KT 17/15 A299 RMK A01 T01650146  RH  089%=      5-min Rain = 0
KEN1 271302Z 17006KT 17/15 A299 RMK A01 T01650145  RH  088%=      5-min Rain = 0
KEN1 271303Z 17006KT 17/15 A299 RMK A01 T01650145  RH  088%=      5-min Rain = 0
KEN1 271304Z 17006KT 17/15 A299 RMK A01 T01650145  RH  088%=      5-min Rain = 0
KEN1 271305Z 17007KT 17/15 A299 RMK A01 T01650145  RH  088%=      5-min Rain = 0
KEN1 271306Z 17007KT 17/15 A299 RMK A01 T01650145  RH  088%=      5-min Rain = 0
KEN1 271307Z 17008KT 17/14 A299 RMK A01 T01660144  RH  087%=      5-min Rain = 0
KEN1 271308Z 18009KT 17/14 A299 RMK A01 T01660144  RH  086%=      5-min Rain = 0
KEN1 271309Z 18008KT 17/14 A299 RMK A01 T01670144  RH  086%=      5-min Rain = 0
KEN1 271310Z 19008KT 17/14 A299 RMK A01 T01680144  RH  086%=      5-min Rain = 0
KEN1 271311Z 19008KT 17/14 A299 RMK A01 T01680144  RH  086%=      5-min Rain = 0
KEN1 271312Z 19008KT 17/15 A299 RMK A01 T01690145  RH  086%=      5-min Rain = 0
KEN1 271313Z 19008KT 17/14 A299 RMK A01 T01690144  RH  085%=      5-min Rain = 0
KEN1 271314Z 19008KT 17/14 A299 RMK A01 T01690144  RH  085%=      5-min Rain = 0
KEN1 271315Z 19008KT 17/15 A299 RMK A01 T01700145  RH  085%=      5-min Rain = 0
KEN1 271316Z 19008KT 17/15 A299 RMK A01 T01700145  RH  085%=      5-min Rain = 0
KEN1 271317Z 20009KT 17/14 A299 RMK A01 T01710144  RH  084%=      5-min Rain = 0
KEN1 271318Z 21009KT 17/14 A299 RMK A01 T01710143  RH  083%=      5-min Rain = 0
KEN1 271319Z 20008KT 17/15 A299 RMK A01 T01720145  RH  084%=      5-min Rain = 0
KEN1 271320Z 20008KT 17/15 A299 RMK A01 T01720145  RH  084%=      5-min Rain = 0
KEN1 271321Z 20008KT 17/15 A299 RMK A01 T01720145  RH  084%=      5-min Rain = 0
KEN1 271322Z 20009KT 17/14 A299 RMK A01 T01730144  RH  083%=      5-min Rain = 0
KEN1 271323Z 20009KT 17/14 A299 RMK A01 T01740143  RH  082%=      5-min Rain = 0
KEN1 271324Z 20008KT 17/14 A299 RMK A01 T01740142  RH  082%=      5-min Rain = 0
KEN1 271325Z 20008KT 17/14 A299 RMK A01 T01740144  RH  082%=      5-min Rain = 0
KEN1 271326Z 20007KT 18/15 A299 RMK A01 T01750145  RH  083%=      5-min Rain = 0
KEN1 271327Z 20007KT 18/15 A299 RMK A01 T01760147  RH  083%=      5-min Rain = 0
KEN1 271328Z 20007KT 18/15 A299 RMK A01 T01760147  RH  083%=      5-min Rain = 0
KEN1 271329Z 20007KT 18/15 A299 RMK A01 T01760146  RH  083%=      5-min Rain = 0
KEN1 271330Z 20006KT 18/15 A299 RMK A01 T01770148  RH  083%=      5-min Rain = 0
KEN1 271331Z 20007KT 18/15 A299 RMK A01 T01770149  RH  083%=      5-min Rain = 0
KEN1 271332Z 20007KT 18/15 A299 RMK A01 T01780146  RH  082%=      5-min Rain = 0
KEN1 271333Z 19006KT 18/15 A299 RMK A01 T01790146  RH  081%=      5-min Rain = 0
KEN1 271334Z 20008KT 18/15 A299 RMK A01 T01790146  RH  081%=      5-min Rain = 0
KEN1 271335Z 20007KT 18/14 A299 RMK A01 T01800144  RH  080%=      5-min Rain = 0
KEN1 271336Z 20007KT 18/14 A299 RMK A01 T01810144  RH  079%=      5-min Rain = 0
KEN1 271337Z 20007KT 18/14 A299 RMK A01 T01810144  RH  079%=      5-min Rain = 0
KEN1 271338Z 20006KT 18/14 A299 RMK A01 T01820144  RH  079%=      5-min Rain = 0
KEN1 271339Z 20006KT 18/15 A299 RMK A01 T01820147  RH  080%=      5-min Rain = 0
KEN1 271340Z 20006KT 18/15 A299 RMK A01 T01830149  RH  080%=      5-min Rain = 0
KEN1 271341Z 20008KT 18/15 A299 RMK A01 T01830145  RH  078%=      5-min Rain = 0
KEN1 271342Z 20006KT 18/14 A299 RMK A01 T01840140  RH  076%=      5-min Rain = 0
KEN1 271343Z 20006KT 18/14 A299 RMK A01 T01840144  RH  077%=      5-min Rain = 0
KEN1 271344Z 20006KT 18/14 A299 RMK A01 T01840143  RH  077%=      5-min Rain = 0
KEN1 271345Z 20006KT 19/15 A299 RMK A01 T01850145  RH  077%=      5-min Rain = 0
KEN1 271346Z 20007KT 19/15 A299 RMK A01 T01850145  RH  077%=      5-min Rain = 0
KEN1 271347Z 21006KT 19/15 A299 RMK A01 T01860145  RH  077%=      5-min Rain = 0
KEN1 271348Z 20006KT 19/14 A299 RMK A01 T01860144  RH  076%=      5-min Rain = 0
KEN1 271349Z 21005KT 19/15 A299 RMK A01 T01860146  RH  077%=      5-min Rain = 0
KEN1 271350Z 22006KT 19/14 A299 RMK A01 T01870144  RH  076%=      5-min Rain = 0
KEN1 271351Z 21006KT 19/14 A299 RMK A01 T01880141  RH  074%=      5-min Rain = 0
KEN1 271352Z 22005KT 19/14 A299 RMK A01 T01880143  RH  075%=      5-min Rain = 0
KEN1 271353Z 21005KT 19/14 A299 RMK A01 T01880143  RH  075%=      5-min Rain = 0
KEN1 271354Z 21004KT 19/14 A299 RMK A01 T01890143  RH  075%=      5-min Rain = 0
KEN1 271355Z 21004KT 19/15 A299 RMK A01 T01900145  RH  075%=      5-min Rain = 0
KEN1 271356Z 22005KT 19/14 A299 RMK A01 T01910144  RH  074%=      5-min Rain = 0
KEN1 271357Z 21006KT 19/14 A299 RMK A01 T01920140  RH  072%=      5-min Rain = 0
KEN1 271358Z 22006KT 19/14 A299 RMK A01 T01930141  RH  072%=      5-min Rain = 0
KEN1 271359Z 21007KT 19/14 A299 RMK A01 T01940139  RH  070%=      5-min Rain = 0
KEN1 271400Z 21007KT 20/14 A299 RMK A01 T01950138  RH  069%=      5-min Rain = 0
KEN1 271401Z 21008KT 20/14 A299 RMK A01 T01960141  RH  070%=      5-min Rain = 0
KEN1 271402Z 21010KT 20/14 A299 RMK A01 T01970135  RH  067%=      5-min Rain = 0
KEN1 271403Z 21010KT 20/13 A299 RMK A01 T01980131  RH  065%=      5-min Rain = 0
KEN1 271404Z 21008KT 20/13 A299 RMK A01 T01990132  RH  065%=      5-min Rain = 0
KEN1 271405Z 21008KT 20/14 A299 RMK A01 T01990137  RH  067%=      5-min Rain = 0
KEN1 271406Z 21008KT 20/14 A299 RMK A01 T02000136  RH  067%=      5-min Rain = 0
KEN1 271407Z 21006KT 20/14 A299 RMK A01 T02000135  RH  066%=      5-min Rain = 0
KEN1 271408Z 21008KT 20/14 A299 RMK A01 T02010135  RH  066%=      5-min Rain = 0
KEN1 271409Z 21008KT 20/13 A299 RMK A01 T02020133  RH  064%=      5-min Rain = 0
KEN1 271410Z 20007KT 20/14 A299 RMK A01 T02030136  RH  065%=      5-min Rain = 0
KEN1 271411Z 20009KT 20/14 A299 RMK A01 T02030136  RH  065%=      5-min Rain = 0
KEN1 271412Z 20008KT 20/13 A299 RMK A01 T02040131  RH  063%=      5-min Rain = 0
KEN1 271413Z 19008KT 20/14 A299 RMK A01 T02040138  RH  066%=      5-min Rain = 0
KEN1 271414Z 20009KT 21/14 A299 RMK A01 T02050135  RH  064%=      5-min Rain = 0
KEN1 271415Z 20009KT 21/12 A299 RMK A01 T02050124  RH  060%=      5-min Rain = 0
KEN1 271416Z 19008KT 21/13 A299 RMK A01 T02060130  RH  062%=      5-min Rain = 0
KEN1 271417Z 20009KT 21/13 A299 RMK A01 T02060131  RH  062%=      5-min Rain = 0
KEN1 271418Z 20009KT 21/13 A299 RMK A01 T02070130  RH  061%=      5-min Rain = 0
KEN1 271419Z 20008KT 21/13 A299 RMK A01 T02070126  RH  059%=      5-min Rain = 0
KEN1 271420Z 21008KT 21/13 A299 RMK A01 T02080130  RH  061%=      5-min Rain = 0
KEN1 271421Z 21010KT 21/13 A299 RMK A01 T02090125  RH  059%=      5-min Rain = 0
KEN1 271422Z 21009KT 21/13 A299 RMK A01 T02090125  RH  058%=      5-min Rain = 0
KEN1 271423Z 21009KT 21/13 A299 RMK A01 T02100127  RH  059%=      5-min Rain = 0
KEN1 271424Z 21011KT 21/12 A299 RMK A01 T02100122  RH  057%=      5-min Rain = 0
KEN1 271425Z 21011KT 21/11 A299 RMK A01 T02110113  RH  054%=      5-min Rain = 0
KEN1 271426Z 21009KT 21/11 A299 RMK A01 T02120114  RH  054%=      5-min Rain = 0
KEN1 271427Z 21007KT 21/13 A299 RMK A01 T02120125  RH  057%=      5-min Rain = 0
KEN1 271428Z 21010KT 21/12 A299 RMK A01 T02130120  RH  055%=      5-min Rain = 0
KEN1 271429Z 21010KT 21/12 A299 RMK A01 T02130117  RH  054%=      5-min Rain = 0
KEN1 271430Z 21010KT 21/12 A299 RMK A01 T02140116  RH  053%=      5-min Rain = 0
KEN1 271431Z 21010KT 22/11 A299 RMK A01 T02150112  RH  052%=      5-min Rain = 0
KEN1 271432Z 20012KT 22/11 A299 RMK A01 T02160107  RH  050%=      5-min Rain = 0
KEN1 271433Z 21012KT 22/11 A299 RMK A01 T02160106  RH  049%=      5-min Rain = 0
KEN1 271434Z 21012KT 22/11 A299 RMK A01 T02160106  RH  049%=      5-min Rain = 0
KEN1 271435Z 20010KT 22/11 A299 RMK A01 T02160111  RH  051%=      5-min Rain = 0
KEN1 271436Z 21011KT 22/11 A299 RMK A01 T02170111  RH  051%=      5-min Rain = 0
KEN1 271437Z 21011KT 22/11 A299 RMK A01 T02170108  RH  050%=      5-min Rain = 0
KEN1 271438Z 21011KT 22/10 A299 RMK A01 T02170103  RH  048%=      5-min Rain = 0
KEN1 271439Z 20010KT 22/11 A299 RMK A01 T02180109  RH  050%=      5-min Rain = 0
KEN1 271440Z 21010KT 22/11 A299 RMK A01 T02190109  RH  050%=      5-min Rain = 0
KEN1 271441Z 20009KT 22/11 A299 RMK A01 T02190110  RH  050%=      5-min Rain = 0
KEN1 271442Z 22009KT 22/11 A299 RMK A01 T02200113  RH  051%=      5-min Rain = 0
KEN1 271443Z 21008KT 22/11 A299 RMK A01 T02210113  RH  050%=      5-min Rain = 0
KEN1 271444Z 21010KT 22/11 A299 RMK A01 T02220110  RH  049%=      5-min Rain = 0
KEN1 271445Z 20009KT 22/11 A299 RMK A01 T02230113  RH  050%=      5-min Rain = 0
KEN1 271446Z 21010KT 22/11 A299 RMK A01 T02230108  RH  048%=      5-min Rain = 0
KEN1 271447Z 21010KT 22/10 A299 RMK A01 T02230101  RH  046%=      5-min Rain = 0
KEN1 271448Z 21009KT 22/11 A299 RMK A01 T02240113  RH  049%=      5-min Rain = 0
KEN1 271449Z 20011KT 22/11 A299 RMK A01 T02240108  RH  048%=      5-min Rain = 0
KEN1 271450Z 21011KT 22/10 A299 RMK A01 T02240102  RH  046%=      5-min Rain = 0
KEN1 271451Z 20011KT 22/11 A299 RMK A01 T02240105  RH  047%=      5-min Rain = 0
KEN1 271452Z 21010KT 23/11 A299 RMK A01 T02250105  RH  047%=      5-min Rain = 0
KEN1 271453Z 20010KT 23/11 A299 RMK A01 T02250107  RH  047%=      5-min Rain = 0
KEN1 271454Z 21011KT 23/10 A299 RMK A01 T02260103  RH  046%=      5-min Rain = 0
KEN1 271455Z 22012KT 23/09 A299 RMK A01 T02260092  RH  042%=      5-min Rain = 0
KEN1 271456Z 22010KT 23/09 A299 RMK A01 T02270087  RH  041%=      5-min Rain = 0
KEN1 271457Z 22009KT 23/10 A299 RMK A01 T02280096  RH  043%=      5-min Rain = 0
KEN1 271458Z 22009KT 23/10 A299 RMK A01 T02290104  RH  045%=      5-min Rain = 0
KEN1 271459Z 22010KT 23/10 A299 RMK A01 T02300101  RH  044%=      5-min Rain = 0
KEN1 271500Z 22012KT 23/09 A299 RMK A01 T02310090  RH  041%=      5-min Rain = 0
KEN1 271501Z 21011KT 23/10 A299 RMK A01 T02310095  RH  042%=      5-min Rain = 0
KEN1 271502Z 21009KT 23/10 A299 RMK A01 T02310098  RH  043%=      5-min Rain = 0
KEN1 271503Z 21010KT 23/10 A299 RMK A01 T02310104  RH  045%=      5-min Rain = 0
KEN1 271504Z 21011KT 23/09 A299 RMK A01 T02320092  RH  041%=      5-min Rain = 0
KEN1 271505Z 21011KT 23/09 A299 RMK A01 T02320093  RH  041%=      5-min Rain = 0
KEN1 271506Z 22010KT 23/09 A299 RMK A01 T02330087  RH  039%=      5-min Rain = 0
KEN1 271507Z 22014KT 23/08 A299 RMK A01 T02330077  RH  037%=      5-min Rain = 0
KEN1 271508Z 22012KT 23/08 A299 RMK A01 T02340076  RH  036%=      5-min Rain = 0
KEN1 271509Z 21013KT 23/07 A299 RMK A01 T02340070  RH  035%=      5-min Rain = 0
KEN1 271510Z 22012KT 23/07 A299 RMK A01 T02340068  RH  034%=      5-min Rain = 0
KEN1 271511Z 22012KT 23/07 A2989 RMK A01 T02340068  RH  034%=      5-min Rain = 0
KEN1 271512Z 21011KT 23/08 A2989 RMK A01 T02340080  RH  037%=      5-min Rain = 0
KEN1 271513Z 22013KT 24/08 A2989 RMK A01 T02350080  RH  037%=      5-min Rain = 0
KEN1 271514Z 22014KT 24/07 A2989 RMK A01 T02350065  RH  033%=      5-min Rain = 0
KEN1 271515Z 22014KT 24/06 A2989 RMK A01 T02350062  RH  033%=      5-min Rain = 0
KEN1 271516Z 22013KT 24/06 A2989 RMK A01 T02360061  RH  032%=      5-min Rain = 0
KEN1 271517Z 21013KT 24/06 A2989 RMK A01 T02360062  RH  033%=      5-min Rain = 0
KEN1 271518Z 22013KT 24/07 A2989 RMK A01 T02360066  RH  033%=      5-min Rain = 0
KEN1 271519Z 22013KT 24/07 A2989 RMK A01 T02360065  RH  033%=      5-min Rain = 0
KEN1 271520Z 22013KT 24/07 A2989 RMK A01 T02370071  RH  035%=      5-min Rain = 0
KEN1 271521Z 22016KT 24/05 A2989 RMK A01 T02370050  RH  030%=      5-min Rain = 0
KEN1 271522Z 23014KT 24/04 A2989 RMK A01 T02380036  RH  027%=      5-min Rain = 0
KEN1 271523Z 22012KT 24/05 A2989 RMK A01 T02390045  RH  029%=      5-min Rain = 0
KEN1 271524Z 23015KT 24/04 A2989 RMK A01 T02390038  RH  027%=      5-min Rain = 0
KEN1 271525Z 22013KT 24/04 A2989 RMK A01 T02400039  RH  027%=      5-min Rain = 0
KEN1 271526Z 23015KT 24/03 A2989 RMK A01 T02390033  RH  026%=      5-min Rain = 0
KEN1 271527Z 23015KT 24/03 A2989 RMK A01 T02400027  RH  025%=      5-min Rain = 0
KEN1 271528Z 23014KT 24/03 A2989 RMK A01 T02390028  RH  025%=      5-min Rain = 0
KEN1 271529Z 24012KT 24/03 A299 RMK A01 T02390033  RH  026%=      5-min Rain = 0
KEN1 271530Z 24013KT 24/04 A299 RMK A01 T02400040  RH  027%=      5-min Rain = 0
KEN1 271531Z 22012KT 24/04 A299 RMK A01 T02400042  RH  028%=      5-min Rain = 0
KEN1 271532Z 22013KT 24/05 A2989 RMK A01 T02410046  RH  028%=      5-min Rain = 0
KEN1 271533Z 22013KT 24/04 A2989 RMK A01 T02410040  RH  027%=      5-min Rain = 0
KEN1 271534Z 22016KT 24/04 A2989 RMK A01 T02420043  RH  027%=      5-min Rain = 0
KEN1 271535Z 23017KT 24/03 A2989 RMK A01 T02420030  RH  025%=      5-min Rain = 0
KEN1 271536Z 23016KT 24/03 A2989 RMK A01 T02420027  RH  025%=      5-min Rain = 0
KEN1 271537Z 24014KT 24/03 A2989 RMK A01 T02410028  RH  025%=      5-min Rain = 0
KEN1 271538Z 23014KT 24/04 A2989 RMK A01 T02410041  RH  027%=      5-min Rain = 0
KEN1 271539Z 23015KT 24/04 A2989 RMK A01 T02420037  RH  026%=      5-min Rain = 0
KEN1 271540Z 23015KT 24/03 A2989 RMK A01 T02430033  RH  026%=      5-min Rain = 0
KEN1 271541Z 23015KT 24/03 A2989 RMK A01 T02430031  RH  025%=      5-min Rain = 0
KEN1 271542Z 22014KT 24/04 A2989 RMK A01 T02420041  RH  027%=      5-min Rain = 0
KEN1 271543Z 22014KT 24/05 A2989 RMK A01 T02440050  RH  029%=      5-min Rain = 0
KEN1 271544Z 22015KT 25/04 A2989 RMK A01 T02450038  RH  026%=      5-min Rain = 0
KEN1 271545Z 22015KT 25/04 A2989 RMK A01 T02450039  RH  026%=      5-min Rain = 0
KEN1 271546Z 22014KT 25/04 A2989 RMK A01 T02450043  RH  027%=      5-min Rain = 0
KEN1 271547Z 22017KT 25/04 A2989 RMK A01 T02450037  RH  026%=      5-min Rain = 0
KEN1 271548Z 22017KT 25/04 A2989 RMK A01 T02450038  RH  026%=      5-min Rain = 0
KEN1 271549Z 22016KT 25/04 A2989 RMK A01 T02450040  RH  027%=      5-min Rain = 0
KEN1 271550Z 22017KT 25/04 A2989 RMK A01 T02450044  RH  027%=      5-min Rain = 0
KEN1 271551Z 22017KT 25/04 A2989 RMK A01 T02450036  RH  026%=      5-min Rain = 0
KEN1 271552Z 22016KT 25/04 A2989 RMK A01 T02450039  RH  026%=      5-min Rain = 0
KEN1 271553Z 22015KT 25/04 A2989 RMK A01 T02450042  RH  027%=      5-min Rain = 0
KEN1 271554Z 23015G20KT 25/05 A2989 RMK A01 T02450049  RH  028%=      5-min Rain = 0
KEN1 271555Z 22017KT 25/04 A2989 RMK A01 T02460043  RH  027%=      5-min Rain = 0
KEN1 271556Z 23015KT 25/04 A2988 RMK A01 T02450041  RH  027%=      5-min Rain = 0
KEN1 271557Z 22015KT 25/05 A2988 RMK A01 T02450048  RH  028%=      5-min Rain = 0
KEN1 271558Z 23016KT 25/04 A2989 RMK A01 T02460044  RH  027%=      5-min Rain = 0
KEN1 271559Z 23017KT 25/04 A2988 RMK A01 T02460040  RH  026%=      5-min Rain = 0
KEN1 271600Z 22018KT 25/05 A2988 RMK A01 T02460046  RH  027%=      5-min Rain = 0
KEN1 271601Z 22017KT 25/04 A2988 RMK A01 T02460041  RH  026%=      5-min Rain = 0
KEN1 271602Z 22013KT 25/04 A2988 RMK A01 T02460036  RH  026%=      5-min Rain = 0
KEN1 271603Z 21017KT 25/05 A2988 RMK A01 T02460047  RH  028%=      5-min Rain = 0
KEN1 271604Z 22016G21KT 25/05 A2988 RMK A01 T02480047  RH  027%=      5-min Rain = 0
KEN1 271605Z 22017KT 25/05 A2988 RMK A01 T02480049  RH  028%=      5-min Rain = 0
KEN1 271606Z 22015KT 25/04 A2988 RMK A01 T02480044  RH  027%=      5-min Rain = 0
KEN1 271607Z 23013KT 25/05 A2988 RMK A01 T02480048  RH  027%=      5-min Rain = 0
KEN1 271608Z 22015KT 25/04 A2988 RMK A01 T02480042  RH  026%=      5-min Rain = 0
KEN1 271609Z 23013KT 25/05 A2988 RMK A01 T02480046  RH  027%=      5-min Rain = 0
KEN1 271610Z 22013KT 25/06 A2988 RMK A01 T02490056  RH  029%=      5-min Rain = 0
KEN1 271611Z 22012KT 25/06 A2988 RMK A01 T02510061  RH  030%=      5-min Rain = 0
KEN1 271612Z 22013G18KT 25/06 A2988 RMK A01 T02520063  RH  030%=      5-min Rain = 0
KEN1 271613Z 23016G22KT 25/06 A2988 RMK A01 T02530061  RH  029%=      5-min Rain = 0
KEN1 271614Z 22018KT 25/05 A2988 RMK A01 T02530045  RH  026%=      5-min Rain = 0
KEN1 271615Z 21019KT 25/04 A2988 RMK A01 T02500038  RH  025%=      5-min Rain = 0
KEN1 271616Z 21019KT 25/04 A2987 RMK A01 T02490041  RH  026%=      5-min Rain = 0
KEN1 271617Z 22017KT 25/05 A2988 RMK A01 T02490045  RH  027%=      5-min Rain = 0
KEN1 271618Z 23016KT 25/05 A2988 RMK A01 T02490045  RH  027%=      5-min Rain = 0
KEN1 271619Z 24016KT 25/04 A2988 RMK A01 T02490043  RH  026%=      5-min Rain = 0
KEN1 271620Z 23019KT 25/04 A2987 RMK A01 T02490041  RH  026%=      5-min Rain = 0
KEN1 271621Z 22018KT 25/04 A2987 RMK A01 T02490036  RH  025%=      5-min Rain = 0
KEN1 271622Z 23017KT 25/04 A2987 RMK A01 T02500037  RH  025%=      5-min Rain = 0
KEN1 271623Z 23016KT 25/05 A2988 RMK A01 T02500045  RH  027%=      5-min Rain = 0
KEN1 271624Z 23017KT 25/04 A2988 RMK A01 T02510039  RH  025%=      5-min Rain = 0
KEN1 271625Z 23017KT 25/04 A2988 RMK A01 T02510040  RH  026%=      5-min Rain = 0
KEN1 271631Z 23018KT 25/03 A2987 RMK A01 T02530034  RH  024%=      5-min Rain = 0
KEN1 271632Z 23018KT 25/03 A2987 RMK A01 T02530031  RH  024%=      5-min Rain = 0
KEN1 271633Z 23016KT 25/04 A2987 RMK A01 T02530035  RH  024%=      5-min Rain = 0
KEN1 271634Z 24015KT 25/05 A2987 RMK A01 T02540047  RH  026%=      5-min Rain = 0
KEN1 271635Z 24016KT 25/04 A2987 RMK A01 T02540042  RH  025%=      5-min Rain = 0
KEN1 271636Z 24014KT 26/04 A2987 RMK A01 T02550037  RH  024%=      5-min Rain = 0
KEN1 271637Z 24012KT 25/04 A2987 RMK A01 T02540043  RH  026%=      5-min Rain = 0
KEN1 271638Z 22013KT 26/06 A2987 RMK A01 T02560056  RH  028%=      5-min Rain = 0
KEN1 271639Z 22016KT 26/05 A2987 RMK A01 T02570047  RH  026%=      5-min Rain = 0
KEN1 271640Z 23015KT 26/04 A2987 RMK A01 T02570043  RH  025%=      5-min Rain = 0
KEN1 271641Z 23015KT 26/04 A2987 RMK A01 T02570041  RH  025%=      5-min Rain = 0
KEN1 271642Z 23016KT 26/04 A2987 RMK A01 T02560040  RH  025%=      5-min Rain = 0
KEN1 271643Z 23015KT 26/04 A2987 RMK A01 T02560038  RH  024%=      5-min Rain = 0
KEN1 271644Z 23013KT 26/05 A2987 RMK A01 T02560049  RH  026%=      5-min Rain = 0
KEN1 271645Z 23014KT 26/04 A2987 RMK A01 T02570041  RH  025%=      5-min Rain = 0
KEN1 271646Z 22017KT 26/04 A2987 RMK A01 T02570041  RH  025%=      5-min Rain = 0
KEN1 271647Z 22019KT 26/04 A2987 RMK A01 T02570035  RH  024%=      5-min Rain = 0
KEN1 271648Z 23015KT 26/04 A2987 RMK A01 T02560039  RH  024%=      5-min Rain = 0
KEN1 271649Z 24015KT 26/03 A2987 RMK A01 T02570031  RH  023%=      5-min Rain = 0
KEN1 271650Z 23015KT 26/04 A2987 RMK A01 T02560036  RH  024%=      5-min Rain = 0
KEN1 271651Z 23017KT 26/03 A2987 RMK A01 T02560034  RH  024%=      5-min Rain = 0
KEN1 271652Z 22017KT 26/03 A2987 RMK A01 T02570033  RH  023%=      5-min Rain = 0
KEN1 271653Z 23017G23KT 26/03 A2987 RMK A01 T02570030  RH  023%=      5-min Rain = 0
KEN1 271654Z 22013KT 26/04 A2987 RMK A01 T02570043  RH  025%=      5-min Rain = 0
KEN1 271655Z 23016KT 26/04 A2987 RMK A01 T02590041  RH  024%=      5-min Rain = 0
KEN1 271656Z 23013KT 26/04 A2987 RMK A01 T02590039  RH  024%=      5-min Rain = 0
KEN1 271657Z 24013KT 26/04 A2987 RMK A01 T02590044  RH  025%=      5-min Rain = 0
KEN1 271658Z 24015KT 26/05 A2987 RMK A01 T02600046  RH  025%=      5-min Rain = 0
KEN1 271659Z 23018KT 26/04 A2987 RMK A01 T02610036  RH  023%=      5-min Rain = 0
KEN1 271700Z 23016KT 26/03 A2987 RMK A01 T02610027  RH  022%=      5-min Rain = 0
KEN1 271701Z 23015KT 26/04 A2987 RMK A01 T02600042  RH  025%=      5-min Rain = 0
KEN1 271702Z 23016KT 26/03 A2987 RMK A01 T02610028  RH  022%=      5-min Rain = 0
KEN1 271703Z 23013KT 26/03 A2987 RMK A01 T02600029  RH  022%=      5-min Rain = 0
KEN1 271704Z 23014KT 26/05 A2987 RMK A01 T02610050  RH  026%=      5-min Rain = 0
KEN1 271705Z 22018KT 26/05 A2987 RMK A01 T02620048  RH  025%=      5-min Rain = 0
KEN1 271706Z 22018KT 26/03 A2987 RMK A01 T02620034  RH  023%=      5-min Rain = 0
KEN1 271707Z 22015KT 26/04 A2987 RMK A01 T02620039  RH  024%=      5-min Rain = 0
KEN1 271708Z 22017KT 26/05 A2987 RMK A01 T02620046  RH  025%=      5-min Rain = 0
KEN1 271709Z 22016KT 26/04 A2987 RMK A01 T02620040  RH  024%=      5-min Rain = 0
KEN1 271710Z 22017KT 26/04 A2986 RMK A01 T02620043  RH  024%=      5-min Rain = 0
KEN1 271711Z 22017KT 26/04 A2986 RMK A01 T02620039  RH  024%=      5-min Rain = 0
KEN1 271712Z 23019KT 26/03 A2987 RMK A01 T02610034  RH  023%=      5-min Rain = 0
KEN1 271713Z 22016KT 26/03 A2986 RMK A01 T02610033  RH  023%=      5-min Rain = 0
KEN1 271714Z 22016KT 26/04 A2986 RMK A01 T02610038  RH  024%=      5-min Rain = 0
KEN1 271715Z 22015KT 26/05 A2986 RMK A01 T02610045  RH  025%=      5-min Rain = 0
KEN1 271716Z 23015G20KT 26/05 A2987 RMK A01 T02630049  RH  025%=      5-min Rain = 0
KEN1 271717Z 23016KT 26/03 A2987 RMK A01 T02640032  RH  022%=      5-min Rain = 0
KEN1 271718Z 23018KT 26/02 A2987 RMK A01 T02630024  RH  021%=      5-min Rain = 0
KEN1 271719Z 22015KT 26/04 A2987 RMK A01 T02610040  RH  024%=      5-min Rain = 0
KEN1 271720Z 21019KT 26/05 A2986 RMK A01 T02630050  RH  026%=      5-min Rain = 0
KEN1 271721Z 21016KT 26/04 A2986 RMK A01 T02640039  RH  024%=      5-min Rain = 0
KEN1 271722Z 21018KT 26/05 A2986 RMK A01 T02640046  RH  025%=      5-min Rain = 0
KEN1 271723Z 22019KT 26/03 A2986 RMK A01 T02630029  RH  022%=      5-min Rain = 0
KEN1 271724Z 22018KT 26/03 A2986 RMK A01 T02620030  RH  022%=      5-min Rain = 0
KEN1 271725Z 22015KT 26/03 A2986 RMK A01 T02620031  RH  022%=      5-min Rain = 0
KEN1 271726Z 23015KT 26/04 A2986 RMK A01 T02630043  RH  024%=      5-min Rain = 0
KEN1 271727Z 22015KT 27/04 A2986 RMK A01 T02650039  RH  023%=      5-min Rain = 0
KEN1 271728Z 21014KT 27/04 A2986 RMK A01 T02650044  RH  024%=      5-min Rain = 0
KEN1 271729Z 21014KT 27/05 A2986 RMK A01 T02650052  RH  026%=      5-min Rain = 0
KEN1 271730Z 22018KT 27/05 A2986 RMK A01 T02650048  RH  025%=      5-min Rain = 0
KEN1 271731Z 22016KT 27/04 A2986 RMK A01 T02650039  RH  023%=      5-min Rain = 0
KEN1 271732Z 22016KT 27/04 A2986 RMK A01 T02650043  RH  024%=      5-min Rain = 0
KEN1 271733Z 22017KT 27/03 A2986 RMK A01 T02650034  RH  023%=      5-min Rain = 0
KEN1 271734Z 23017KT 27/03 A2987 RMK A01 T02650031  RH  022%=      5-min Rain = 0
KEN1 271735Z 22015KT 27/04 A2986 RMK A01 T02650035  RH  023%=      5-min Rain = 0
KEN1 271736Z 22016KT 26/04 A2986 RMK A01 T02640035  RH  023%=      5-min Rain = 0
KEN1 271737Z 22015KT 26/03 A2986 RMK A01 T02630027  RH  022%=      5-min Rain = 0
KEN1 271738Z 22015KT 26/03 A2986 RMK A01 T02620027  RH  022%=      5-min Rain = 0
KEN1 271739Z 22015KT 26/04 A2986 RMK A01 T02620038  RH  024%=      5-min Rain = 0
KEN1 271740Z 22019KT 26/05 A2986 RMK A01 T02640046  RH  025%=      5-min Rain = 0
KEN1 271741Z 21016KT 26/03 A2986 RMK A01 T02640031  RH  022%=      5-min Rain = 0
KEN1 271742Z 20015KT 26/04 A2986 RMK A01 T02630039  RH  024%=      5-min Rain = 0
KEN1 271743Z 21014KT 26/05 A2986 RMK A01 T02630051  RH  026%=      5-min Rain = 0
KEN1 271744Z 21016KT 26/04 A2986 RMK A01 T02640035  RH  023%=      5-min Rain = 0
KEN1 271745Z 21015KT 26/03 A2986 RMK A01 T02640032  RH  022%=      5-min Rain = 0
KEN1 271746Z 22015KT 26/03 A2986 RMK A01 T02640032  RH  022%=      5-min Rain = 0
KEN1 271747Z 20015KT 26/04 A2986 RMK A01 T02640039  RH  023%=      5-min Rain = 0
KEN1 271748Z 20015KT 26/03 A2986 RMK A01 T02640033  RH  022%=      5-min Rain = 0
KEN1 271749Z 21013KT 26/05 A2986 RMK A01 T02640049  RH  025%=      5-min Rain = 0
KEN1 271750Z 22012KT 26/04 A2986 RMK A01 T02640040  RH  024%=      5-min Rain = 0
KEN1 271751Z 22010KT 27/04 A2986 RMK A01 T02650044  RH  024%=      5-min Rain = 0
KEN1 271752Z 20011KT 27/04 A2986 RMK A01 T02650041  RH  024%=      5-min Rain = 0
KEN1 271753Z 20014G19KT 27/05 A2986 RMK A01 T02650047  RH  025%=      5-min Rain = 0
KEN1 271754Z 20016KT 27/03 A2986 RMK A01 T02660034  RH  023%=      5-min Rain = 0
KEN1 271755Z 20018KT 27/03 A2986 RMK A01 T02650032  RH  022%=      5-min Rain = 0
KEN1 271756Z 20014KT 26/03 A2986 RMK A01 T02630030  RH  022%=      5-min Rain = 0
KEN1 271757Z 20014KT 26/03 A2986 RMK A01 T02630034  RH  023%=      5-min Rain = 0
KEN1 271758Z 20012KT 26/04 A2986 RMK A01 T02630036  RH  023%=      5-min Rain = 0
KEN1 271759Z 19011KT 26/03 A2986 RMK A01 T02630031  RH  022%=      5-min Rain = 0
KEN1 271800Z 19012G18KT 26/04 A2986 RMK A01 T02630036  RH  023%=      5-min Rain = 0
KEN1 271801Z 19016G21KT 26/04 A2986 RMK A01 T02640044  RH  024%=      5-min Rain = 0
KEN1 271802Z 20017KT 26/04 A2985 RMK A01 T02640038  RH  023%=      5-min Rain = 0
KEN1 271803Z 21015KT 27/05 A2985 RMK A01 T02650051  RH  025%=      5-min Rain = 0
KEN1 271804Z 22015KT 27/04 A2985 RMK A01 T02660039  RH  023%=      5-min Rain = 0
KEN1 271805Z 22015KT 27/03 A2986 RMK A01 T02660032  RH  022%=      5-min Rain = 0
KEN1 271806Z 21015KT 27/03 A2985 RMK A01 T02660033  RH  022%=      5-min Rain = 0
KEN1 271807Z 22013KT 27/03 A2985 RMK A01 T02650028  RH  022%=      5-min Rain = 0
KEN1 271808Z 22019G24KT 27/04 A2985 RMK A01 T02650040  RH  024%=      5-min Rain = 0
KEN1 271809Z 22018KT 27/04 A2985 RMK A01 T02650040  RH  023%=      5-min Rain = 0
KEN1 271810Z 21015KT 27/05 A2985 RMK A01 T02660048  RH  025%=      5-min Rain = 0
KEN1 271811Z 22014KT 27/04 A2985 RMK A01 T02660037  RH  023%=      5-min Rain = 0
KEN1 271812Z 21011KT 27/04 A2985 RMK A01 T02650043  RH  024%=      5-min Rain = 0
KEN1 271813Z 21013KT 27/05 A2985 RMK A01 T02650046  RH  025%=      5-min Rain = 0
KEN1 271814Z 20017KT 27/05 A2985 RMK A01 T02660050  RH  025%=      5-min Rain = 0
KEN1 271815Z 18016KT 27/04 A2985 RMK A01 T02670041  RH  023%=      5-min Rain = 0
KEN1 271816Z 20015G21KT 27/05 A2985 RMK A01 T02660046  RH  024%=      5-min Rain = 0
KEN1 271817Z 21015KT 27/04 A2985 RMK A01 T02660039  RH  023%=      5-min Rain = 0
KEN1 271818Z 20013KT 27/04 A2985 RMK A01 T02650036  RH  023%=      5-min Rain = 0
KEN1 271819Z 20012KT 27/05 A2985 RMK A01 T02650053  RH  026%=      5-min Rain = 0
KEN1 271820Z 20013KT 27/04 A2985 RMK A01 T02650041  RH  024%=      5-min Rain = 0
KEN1 271821Z 20012KT 27/04 A2985 RMK A01 T02650040  RH  023%=      5-min Rain = 0
KEN1 271822Z 20013KT 27/05 A2984 RMK A01 T02650052  RH  026%=      5-min Rain = 0
KEN1 271823Z 21013KT 27/05 A2984 RMK A01 T02670053  RH  026%=      5-min Rain = 0
KEN1 271824Z 21015KT 27/05 A2984 RMK A01 T02680050  RH  025%=      5-min Rain = 0
KEN1 271825Z 20015KT 27/05 A2984 RMK A01 T02690053  RH  025%=      5-min Rain = 0
KEN1 271826Z 20015KT 27/05 A2984 RMK A01 T02690046  RH  024%=      5-min Rain = 0
KEN1 271827Z 20014KT 27/04 A2984 RMK A01 T02680040  RH  023%=      5-min Rain = 0
KEN1 271828Z 20014KT 27/05 A2984 RMK A01 T02670046  RH  024%=      5-min Rain = 0
KEN1 271829Z 19013G18KT 27/05 A2984 RMK A01 T02670054  RH  026%=      5-min Rain = 0
KEN1 271830Z 19017KT 27/06 A2984 RMK A01 T02700055  RH  025%=      5-min Rain = 0
KEN1 271831Z 21014KT 27/06 A2984 RMK A01 T02710062  RH  026%=      5-min Rain = 0
KEN1 271832Z 21018KT 27/06 A2984 RMK A01 T02740063  RH  026%=      5-min Rain = 0
KEN1 271833Z 19018KT 28/06 A2984 RMK A01 T02750055  RH  025%=      5-min Rain = 0
KEN1 271834Z 18019KT 27/04 A2984 RMK A01 T02740043  RH  023%=      5-min Rain = 0
KEN1 271835Z 19020KT 27/04 A2984 RMK A01 T02730037  RH  022%=      5-min Rain = 0
KEN1 271836Z 19017KT 27/04 A2984 RMK A01 T02710035  RH  022%=      5-min Rain = 0
KEN1 271837Z 18016KT 27/03 A2984 RMK A01 T02700031  RH  021%=      5-min Rain = 0
KEN1 271838Z 18014KT 27/05 A2984 RMK A01 T02700049  RH  024%=      5-min Rain = 0
KEN1 271839Z 18014KT 27/03 A2984 RMK A01 T02710032  RH  021%=      5-min Rain = 0
KEN1 271840Z 19015KT 27/03 A2984 RMK A01 T02710032  RH  021%=      5-min Rain = 0
KEN1 271841Z 19017KT 27/04 A2984 RMK A01 T02700040  RH  023%=      5-min Rain = 0
KEN1 271842Z 22014KT 27/05 A2983 RMK A01 T02720051  RH  024%=      5-min Rain = 0
KEN1 271843Z 21016KT 27/04 A2983 RMK A01 T02740043  RH  023%=      5-min Rain = 0
KEN1 271844Z 21012KT 27/03 A2983 RMK A01 T02740031  RH  021%=      5-min Rain = 0
KEN1 271845Z 20015G20KT 27/04 A2983 RMK A01 T02720036  RH  022%=      5-min Rain = 0
KEN1 271846Z 20019KT 27/05 A2983 RMK A01 T02720045  RH  023%=      5-min Rain = 0
KEN1 271847Z 19014KT 27/05 A2983 RMK A01 T02730048  RH  024%=      5-min Rain = 0
KEN1 271848Z 17018G23KT 27/05 A2983 RMK A01 T02740045  RH  023%=      5-min Rain = 0
KEN1 271849Z 18020KT 27/04 A2983 RMK A01 T02740035  RH  021%=      5-min Rain = 0
KEN1 271850Z 18017G22KT 27/04 A2983 RMK A01 T02740038  RH  022%=      5-min Rain = 0
KEN1 271851Z 19015G20KT 27/05 A2983 RMK A01 T02740053  RH  024%=      5-min Rain = 0
KEN1 271852Z 19020G26KT 28/04 A2983 RMK A01 T02760041  RH  022%=      5-min Rain = 0
KEN1 271853Z 19021KT 28/04 A2983 RMK A01 T02750036  RH  021%=      5-min Rain = 0
KEN1 271854Z 19020KT 27/04 A2983 RMK A01 T02740038  RH  022%=      5-min Rain = 0
KEN1 271855Z 19021KT 27/03 A2983 RMK A01 T02740027  RH  020%=      5-min Rain = 0
KEN1 271856Z 19017KT 27/03 A2983 RMK A01 T02730031  RH  021%=      5-min Rain = 0
KEN1 271857Z 18017KT 27/03 A2983 RMK A01 T02720028  RH  021%=      5-min Rain = 0
KEN1 271858Z 20015KT 27/03 A2983 RMK A01 T02710029  RH  021%=      5-min Rain = 0
KEN1 271859Z 21015KT 27/03 A2983 RMK A01 T02710027  RH  021%=      5-min Rain = 0
KEN1 271900Z 20015KT 27/04 A2983 RMK A01 T02720040  RH  023%=      5-min Rain = 0
KEN1 271901Z 20021KT 27/04 A2982 RMK A01 T02740041  RH  022%=      5-min Rain = 0
KEN1 271902Z 20017KT 27/04 A2982 RMK A01 T02740040  RH  022%=      5-min Rain = 0
KEN1 271903Z 19013G18KT 28/06 A2982 RMK A01 T02750059  RH  025%=      5-min Rain = 0
KEN1 271904Z 19017KT 28/05 A2982 RMK A01 T02770051  RH  024%=      5-min Rain = 0
KEN1 271905Z 19014G19KT 28/05 A2982 RMK A01 T02780054  RH  024%=      5-min Rain = 0
KEN1 271906Z 20014KT 28/06 A2982 RMK A01 T02780056  RH  024%=      5-min Rain = 0
KEN1 271907Z 18016KT 28/06 A2982 RMK A01 T02790061  RH  025%=      5-min Rain = 0
KEN1 271908Z 18016KT 28/04 A2982 RMK A01 T02790040  RH  022%=      5-min Rain = 0
KEN1 271909Z 18016G21KT 28/04 A2982 RMK A01 T02770038  RH  022%=      5-min Rain = 0
KEN1 271910Z 20020KT 28/04 A2982 RMK A01 T02770044  RH  023%=      5-min Rain = 0
KEN1 271911Z 21021KT 28/03 A2982 RMK A01 T02770031  RH  021%=      5-min Rain = 0
KEN1 271912Z 21017KT 28/04 A2982 RMK A01 T02760039  RH  022%=      5-min Rain = 0
KEN1 271913Z 20017KT 28/04 A2982 RMK A01 T02760042  RH  022%=      5-min Rain = 0
KEN1 271914Z 19016KT 28/04 A2982 RMK A01 T02760043  RH  023%=      5-min Rain = 0
KEN1 271915Z 20013KT 28/04 A2982 RMK A01 T02760037  RH  022%=      5-min Rain = 0
KEN1 271916Z 21016KT 28/04 A2982 RMK A01 T02750044  RH  023%=      5-min Rain = 0
KEN1 271917Z 21014G20KT 28/05 A2982 RMK A01 T02760053  RH  024%=      5-min Rain = 0
KEN1 271918Z 21016G23KT 28/06 A2982 RMK A01 T02780059  RH  025%=      5-min Rain = 0
KEN1 271919Z 20019KT 28/05 A2982 RMK A01 T02800049  RH  023%=      5-min Rain = 0
KEN1 271920Z 20020G26KT 28/04 A2981 RMK A01 T02800038  RH  021%=      5-min Rain = 0
KEN1 271921Z 19020KT 28/04 A2981 RMK A01 T02790041  RH  022%=      5-min Rain = 0
KEN1 271922Z 19019KT 28/04 A2981 RMK A01 T02780042  RH  022%=      5-min Rain = 0
KEN1 271923Z 20015G20KT 28/06 A2981 RMK A01 T02800057  RH  024%=      5-min Rain = 0
KEN1 271924Z 20018G24KT 28/06 A2981 RMK A01 T02820057  RH  024%=      5-min Rain = 0
KEN1 271925Z 20021KT 28/03 A2981 RMK A01 T02800033  RH  020%=      5-min Rain = 0
KEN1 271926Z 20016KT 28/05 A2981 RMK A01 T02780045  RH  023%=      5-min Rain = 0
KEN1 271927Z 20017G22KT 28/06 A2981 RMK A01 T02780056  RH  024%=      5-min Rain = 0
KEN1 271928Z 20017KT 28/04 A2981 RMK A01 T02790041  RH  022%=      5-min Rain = 0
KEN1 271929Z 21017KT 28/05 A2981 RMK A01 T02790049  RH  023%=      5-min Rain = 0
KEN1 271930Z 21015KT 28/04 A2981 RMK A01 T02790040  RH  022%=      5-min Rain = 0
KEN1 271931Z 21020KT 28/04 A2981 RMK A01 T02790043  RH  022%=      5-min Rain = 0
KEN1 271932Z 20021G26KT 28/04 A298 RMK A01 T02800040  RH  022%=      5-min Rain = 0
KEN1 271933Z 20018KT 28/04 A298 RMK A01 T02790039  RH  022%=      5-min Rain = 0
KEN1 271934Z 19022KT 28/04 A298 RMK A01 T02780040  RH  022%=      5-min Rain = 0
KEN1 271935Z 19018G24KT 28/05 A298 RMK A01 T02790050  RH  023%=      5-min Rain = 0
KEN1 271936Z 19020KT 28/05 A298 RMK A01 T02800049  RH  023%=      5-min Rain = 0
KEN1 271937Z 20021KT 28/04 A298 RMK A01 T02800040  RH  021%=      5-min Rain = 0
KEN1 271938Z 20020KT 28/04 A298 RMK A01 T02790039  RH  022%=      5-min Rain = 0
KEN1 271939Z 19015KT 28/05 A298 RMK A01 T02780054  RH  024%=      5-min Rain = 0
KEN1 271940Z 19016KT 28/05 A298 RMK A01 T02800053  RH  024%=      5-min Rain = 0
KEN1 271941Z 20015KT 28/05 A298 RMK A01 T02800048  RH  023%=      5-min Rain = 0
KEN1 271942Z 20018G23KT 28/05 A298 RMK A01 T02800050  RH  023%=      5-min Rain = 0
KEN1 271943Z 20020KT 28/04 A298 RMK A01 T02800039  RH  021%=      5-min Rain = 0
KEN1 271944Z 20018KT 28/04 A298 RMK A01 T02790042  RH  022%=      5-min Rain = 0
KEN1 271945Z 21018KT 28/05 A2979 RMK A01 T02790048  RH  023%=      5-min Rain = 0
KEN1 271946Z 20016KT 28/06 A2979 RMK A01 T02810060  RH  025%=      5-min Rain = 0
KEN1 271947Z 21020KT 28/05 A2979 RMK A01 T02820052  RH  023%=      5-min Rain = 0
KEN1 271948Z 20016KT 28/05 A2979 RMK A01 T02820053  RH  023%=      5-min Rain = 0
KEN1 271949Z 20016KT 28/07 A298 RMK A01 T02830070  RH  026%=      5-min Rain = 0
KEN1 271950Z 19018G23KT 28/05 A2979 RMK A01 T02840053  RH  023%=      5-min Rain = 0
KEN1 271951Z 20017KT 28/05 A2979 RMK A01 T02830047  RH  022%=      5-min Rain = 0
KEN1 271952Z 21017G24KT 28/05 A2979 RMK A01 T02820046  RH  022%=      5-min Rain = 0
KEN1 271953Z 21019KT 28/05 A2979 RMK A01 T02820053  RH  023%=      5-min Rain = 0
KEN1 271954Z 19021G27KT 28/06 A2979 RMK A01 T02830055  RH  023%=      5-min Rain = 0
KEN1 271955Z 19020G25KT 28/05 A2979 RMK A01 T02840052  RH  023%=      5-min Rain = 0
KEN1 271956Z 17020KT 28/05 A2979 RMK A01 T02830054  RH  023%=      5-min Rain = 0
KEN1 271957Z 18018KT 28/05 A2979 RMK A01 T02830051  RH  023%=      5-min Rain = 0
KEN1 271958Z 19015KT 28/04 A2979 RMK A01 T02820041  RH  021%=      5-min Rain = 0
KEN1 271959Z 19011KT 28/05 A2979 RMK A01 T02800052  RH  023%=      5-min Rain = 0
KEN1 272000Z 21013KT 28/05 A2979 RMK A01 T02810049  RH  023%=      5-min Rain = 0
KEN1 272001Z 21019KT 28/05 A2978 RMK A01 T02820046  RH  022%=      5-min Rain = 0
KEN1 272002Z 19017G22KT 28/06 A2978 RMK A01 T02840062  RH  025%=      5-min Rain = 0
KEN1 272003Z 18015KT 29/06 A2979 RMK A01 T02850064  RH  025%=      5-min Rain = 0
KEN1 272004Z 19021KT 29/06 A2978 RMK A01 T02860056  RH  023%=      5-min Rain = 0
KEN1 272005Z 20021KT 29/04 A2978 RMK A01 T02850039  RH  021%=      5-min Rain = 0
KEN1 272006Z 20020KT 28/05 A2978 RMK A01 T02840046  RH  022%=      5-min Rain = 0
KEN1 272007Z 19018KT 28/05 A2978 RMK A01 T02840047  RH  022%=      5-min Rain = 0
KEN1 272008Z 20018G26KT 29/05 A2978 RMK A01 T02850054  RH  023%=      5-min Rain = 0
KEN1 272009Z 19022KT 29/05 A2978 RMK A01 T02850049  RH  022%=      5-min Rain = 0
KEN1 272010Z 19022G27KT 29/05 A2978 RMK A01 T02850048  RH  022%=      5-min Rain = 0
KEN1 272011Z 20022KT 29/05 A2978 RMK A01 T02850049  RH  022%=      5-min Rain = 0
KEN1 272012Z 20021KT 29/05 A2978 RMK A01 T02850048  RH  022%=      5-min Rain = 0
KEN1 272013Z 20022KT 29/05 A2978 RMK A01 T02850050  RH  022%=      5-min Rain = 0
KEN1 272014Z 20022KT 29/05 A2978 RMK A01 T02850049  RH  022%=      5-min Rain = 0
KEN1 272015Z 20021KT 29/05 A2978 RMK A01 T02850052  RH  023%=      5-min Rain = 0
KEN1 272016Z 20017KT 29/05 A2978 RMK A01 T02850047  RH  022%=      5-min Rain = 0
KEN1 272017Z 20018KT 29/06 A2978 RMK A01 T02850058  RH  024%=      5-min Rain = 0
KEN1 272018Z 20014KT 29/04 A2978 RMK A01 T02850042  RH  021%=      5-min Rain = 0
KEN1 272019Z 20015G22KT 29/06 A2978 RMK A01 T02850064  RH  025%=      5-min Rain = 0
KEN1 272020Z 22017KT 29/06 A2978 RMK A01 T02870060  RH  024%=      5-min Rain = 0
KEN1 272021Z 21014KT 29/05 A2978 RMK A01 T02860045  RH  021%=      5-min Rain = 0
KEN1 272022Z 21014G26KT 29/06 A2978 RMK A01 T02860064  RH  025%=      5-min Rain = 0
KEN1 272023Z 18019G26KT 29/05 A2977 RMK A01 T02870046  RH  022%=      5-min Rain = 0
KEN1 272024Z 19014G20KT 29/06 A2978 RMK A01 T02880059  RH  023%=      5-min Rain = 0
KEN1 272025Z 19016G21KT 29/06 A2978 RMK A01 T02900061  RH  023%=      5-min Rain = 0
KEN1 272026Z 20018G23KT 29/06 A2977 RMK A01 T02920062  RH  023%=      5-min Rain = 0
KEN1 272027Z 19019KT 29/05 A2977 RMK A01 T02920048  RH  021%=      5-min Rain = 0
KEN1 272028Z 20018KT 29/06 A2977 RMK A01 T02910060  RH  023%=      5-min Rain = 0
KEN1 272029Z 20018KT 29/06 A2977 RMK A01 T02910062  RH  023%=      5-min Rain = 0
KEN1 272030Z 19018G23KT 29/06 A2977 RMK A01 T02920060  RH  023%=      5-min Rain = 0
KEN1 272031Z 19018KT 29/05 A2977 RMK A01 T02920049  RH  021%=      5-min Rain = 0
KEN1 272032Z 18018KT 29/06 A2977 RMK A01 T02910056  RH  023%=      5-min Rain = 0
KEN1 272033Z 18021KT 29/04 A2977 RMK A01 T02900042  RH  021%=      5-min Rain = 0
KEN1 272034Z 18020KT 29/05 A2977 RMK A01 T02890045  RH  021%=      5-min Rain = 0
KEN1 272035Z 19014KT 29/05 A2977 RMK A01 T02890049  RH  022%=      5-min Rain = 0
KEN1 272036Z 18018KT 29/04 A2977 RMK A01 T02880044  RH  021%=      5-min Rain = 0
KEN1 272037Z 19021KT 29/05 A2977 RMK A01 T02890047  RH  022%=      5-min Rain = 0
KEN1 272038Z 19020KT 29/04 A2977 RMK A01 T02900043  RH  021%=      5-min Rain = 0
KEN1 272039Z 20023KT 29/04 A2977 RMK A01 T02900044  RH  021%=      5-min Rain = 0
KEN1 272040Z 20021KT 29/03 A2976 RMK A01 T02890033  RH  019%=      5-min Rain = 0
KEN1 272041Z 19020KT 29/04 A2976 RMK A01 T02880038  RH  020%=      5-min Rain = 0
KEN1 272042Z 20018KT 29/05 A2976 RMK A01 T02880052  RH  022%=      5-min Rain = 0
KEN1 272043Z 21019KT 29/05 A2976 RMK A01 T02900049  RH  022%=      5-min Rain = 0
KEN1 272044Z 21018G23KT 29/05 A2976 RMK A01 T02910047  RH  021%=      5-min Rain = 0
KEN1 272045Z 22014KT 29/05 A2976 RMK A01 T02920049  RH  021%=      5-min Rain = 0
KEN1 272046Z 22019G24KT 29/05 A2976 RMK A01 T02930049  RH  021%=      5-min Rain = 0
KEN1 272047Z 21016KT 29/04 A2976 RMK A01 T02920040  RH  020%=      5-min Rain = 0
KEN1 272048Z 21014KT 29/06 A2976 RMK A01 T02920055  RH  022%=      5-min Rain = 0
KEN1 272049Z 21017KT 29/05 A2975 RMK A01 T02930054  RH  022%=      5-min Rain = 0
KEN1 272050Z 18016G25KT 29/06 A2975 RMK A01 T02940056  RH  022%=      5-min Rain = 0
KEN1 272051Z 19023KT 30/04 A2975 RMK A01 T02950044  RH  020%=      5-min Rain = 0
KEN1 272052Z 19019G24KT 29/04 A2975 RMK A01 T02940040  RH  020%=      5-min Rain = 0
KEN1 272053Z 20017G23KT 29/05 A2975 RMK A01 T02940053  RH  022%=      5-min Rain = 0
KEN1 272054Z 21021KT 30/05 A2975 RMK A01 T02950045  RH  020%=      5-min Rain = 0
KEN1 272055Z 22021G26KT 30/04 A2975 RMK A01 T02960042  RH  020%=      5-min Rain = 0
KEN1 272056Z 21020KT 30/04 A2975 RMK A01 T02960037  RH  019%=      5-min Rain = 0
KEN1 272057Z 21019G24KT 30/04 A2975 RMK A01 T02950039  RH  020%=      5-min Rain = 0
KEN1 272058Z 21018G23KT 30/04 A2975 RMK A01 T02950041  RH  020%=      5-min Rain = 0
KEN1 272059Z 20021KT 30/04 A2975 RMK A01 T02950042  RH  020%=      5-min Rain = 0
KEN1 272100Z 21024KT 30/03 A2974 RMK A01 T02950032  RH  019%=      5-min Rain = 0
KEN1 272101Z 20023KT 30/03 A2974 RMK A01 T02950029  RH  018%=      5-min Rain = 0
KEN1 272102Z 21027G35KT 30/03 A2974 RMK A01 T02950032  RH  019%=      5-min Rain = 0
KEN1 272103Z 22024G29KT 30/03 A2974 RMK A01 T02960026  RH  018%=      5-min Rain = 0
KEN1 272104Z 22023KT 30/03 A2974 RMK A01 T02960026  RH  018%=      5-min Rain = 0
KEN1 272105Z 21021KT 30/03 A2974 RMK A01 T02960027  RH  018%=      5-min Rain = 0
KEN1 272106Z 21020KT 30/03 A2974 RMK A01 T02960032  RH  019%=      5-min Rain = 0
KEN1 272107Z 21022KT 30/04 A2974 RMK A01 T02970035  RH  019%=      5-min Rain = 0
KEN1 272108Z 21024G30KT 30/03 A2974 RMK A01 T02970032  RH  018%=      5-min Rain = 0
KEN1 272109Z 22023KT 30/03 A2974 RMK A01 T02970030  RH  018%=      5-min Rain = 0
KEN1 272110Z 21021KT 30/03 A2974 RMK A01 T02970030  RH  018%=      5-min Rain = 0
KEN1 272111Z 20019G25KT 30/04 A2974 RMK A01 T02970037  RH  019%=      5-min Rain = 0
KEN1 272112Z 20021KT 30/03 A2974 RMK A01 T02970031  RH  018%=      5-min Rain = 0
KEN1 272113Z 20024G31KT 30/04 A2974 RMK A01 T02970040  RH  019%=      5-min Rain = 0
KEN1 272114Z 19023KT 30/02 A2974 RMK A01 T02980020  RH  017%=      5-min Rain = 0
KEN1 272115Z 20025G33KT 30/03 A2974 RMK A01 T02970033  RH  019%=      5-min Rain = 0
KEN1 272116Z 20023G30KT 30/03 A2973 RMK A01 T02970034  RH  019%=      5-min Rain = 0
KEN1 272117Z 19028G34KT 30/03 A2973 RMK A01 T02980025  RH  017%=      5-min Rain = 0
KEN1 272118Z 20022KT 30/03 A2973 RMK A01 T02980031  RH  018%=      5-min Rain = 0
KEN1 272119Z 20024KT 30/04 A2973 RMK A01 T02980036  RH  019%=      5-min Rain = 0
KEN1 272120Z 20019KT 30/04 A2973 RMK A01 T02990037  RH  019%=      5-min Rain = 0
KEN1 272121Z 21022KT 30/04 A2973 RMK A01 T02990041  RH  019%=      5-min Rain = 0
KEN1 272122Z 21023KT 30/03 A2973 RMK A01 T03000028  RH  018%=      5-min Rain = 0
KEN1 272123Z 21020KT 30/03 A2973 RMK A01 T02990033  RH  018%=      5-min Rain = 0
KEN1 272124Z 21021G26KT 30/04 A2973 RMK A01 T03000042  RH  019%=      5-min Rain = 0
KEN1 272125Z 19017G28KT 30/05 A2973 RMK A01 T03010053  RH  021%=      5-min Rain = 0
KEN1 272126Z 20021G28KT 30/04 A2973 RMK A01 T03020037  RH  019%=      5-min Rain = 0
KEN1 272127Z 20023KT 30/04 A2973 RMK A01 T03020038  RH  019%=      5-min Rain = 0
KEN1 272128Z 20024KT 30/03 A2973 RMK A01 T03010028  RH  018%=      5-min Rain = 0
KEN1 272129Z 20021G26KT 30/03 A2973 RMK A01 T03000031  RH  018%=      5-min Rain = 0
KEN1 272130Z 20018G23KT 30/04 A2973 RMK A01 T03000041  RH  019%=      5-min Rain = 0
KEN1 272131Z 20019G24KT 30/04 A2973 RMK A01 T03000037  RH  019%=      5-min Rain = 0
KEN1 272132Z 20021KT 30/04 A2972 RMK A01 T03000037  RH  019%=      5-min Rain = 0
KEN1 272133Z 19022KT 30/03 A2972 RMK A01 T03010027  RH  017%=      5-min Rain = 0
KEN1 272134Z 18023G31KT 30/04 A2972 RMK A01 T03000035  RH  018%=      5-min Rain = 0
KEN1 272135Z 18027G34KT 30/02 A2972 RMK A01 T03010023  RH  017%=      5-min Rain = 0
KEN1 272136Z 18029G34KT 30/02 A2972 RMK A01 T03010021  RH  017%=      5-min Rain = 0
KEN1 272137Z 18026KT 30/03 A2972 RMK A01 T03000026  RH  017%=      5-min Rain = 0
KEN1 272138Z 19025KT 30/02 A2972 RMK A01 T03000022  RH  017%=      5-min Rain = 0
KEN1 272139Z 19026G34KT 30/03 A2972 RMK A01 T03000032  RH  018%=      5-min Rain = 0
KEN1 272140Z 18025KT 30/03 A2972 RMK A01 T03000025  RH  017%=      5-min Rain = 0
KEN1 272141Z 19024KT 30/02 A2972 RMK A01 T02990017  RH  016%=      5-min Rain = 0
KEN1 272142Z 18021G26KT 30/02 A2972 RMK A01 T02990023  RH  017%=      5-min Rain = 0
KEN1 272143Z 19026G32KT 30/03 A2972 RMK A01 T02990031  RH  018%=      5-min Rain = 0
KEN1 272144Z 19028G33KT 30/02 A2972 RMK A01 T03000021  RH  017%=      5-min Rain = 0
KEN1 272145Z 19028G33KT 30/02 A2971 RMK A01 T03000020  RH  017%=      5-min Rain = 0
KEN1 272146Z 19029KT 30/02 A2971 RMK A01 T03000019  RH  016%=      5-min Rain = 0
KEN1 272147Z 19029G36KT 30/02 A2971 RMK A01 T03010015  RH  016%=      5-min Rain = 0
KEN1 272148Z 20026G31KT 30/02 A2971 RMK A01 T03000023  RH  017%=      5-min Rain = 0
KEN1 272149Z 20026KT 30/02 A2971 RMK A01 T03010019  RH  016%=      5-min Rain = 0
KEN1 272150Z 20027G36KT 30/02 A2971 RMK A01 T03010023  RH  017%=      5-min Rain = 0
KEN1 272151Z 20027KT 30/02 A2971 RMK A01 T03010021  RH  017%=      5-min Rain = 0
KEN1 272152Z 19023KT 30/02 A2971 RMK A01 T03010019  RH  016%=      5-min Rain = 0
KEN1 272153Z 19025KT 30/02 A2971 RMK A01 T03010019  RH  016%=      5-min Rain = 0
KEN1 272154Z 19024G33KT 30/02 A2971 RMK A01 T03010018  RH  016%=      5-min Rain = 0
KEN1 272155Z 19033KT 30/01 A2971 RMK A01 T03010007  RH  015%=      5-min Rain = 0
KEN1 272156Z 19031KT 30/01 A2971 RMK A01 T03010006  RH  015%=      5-min Rain = 0
KEN1 272157Z 20029KT 30/01 A2971 RMK A01 T03000008  RH  015%=      5-min Rain = 0
KEN1 272158Z 20027G32KT 30/02 A2971 RMK A01 T03000018  RH  016%=      5-min Rain = 0
KEN1 272159Z 20027KT 30/01 A2971 RMK A01 T03000009  RH  015%=      5-min Rain = 0
KEN1 272200Z 20022G28KT 30/02 A2971 RMK A01 T03000017  RH  016%=      5-min Rain = 0
KEN1 272201Z 20023G28KT 30/02 A2971 RMK A01 T03000022  RH  017%=      5-min Rain = 0
KEN1 272202Z 19023KT 30/03 A2971 RMK A01 T03000027  RH  017%=      5-min Rain = 0
KEN1 272203Z 19024G29KT 30/02 A2971 RMK A01 T03010017  RH  016%=      5-min Rain = 0
KEN1 272204Z 19026G32KT 30/01 A297 RMK A01 T03010011  RH  016%=      5-min Rain = 0
KEN1 272205Z 19029G36KT 30/01 A2971 RMK A01 T03000011  RH  016%=      5-min Rain = 0
KEN1 272206Z 19026G31KT 30/02 A297 RMK A01 T03000015  RH  016%=      5-min Rain = 0
KEN1 272207Z 19028KT 30/01 A297 RMK A01 T03000012  RH  016%=      5-min Rain = 0
KEN1 272208Z 19024G30KT 30/02 A297 RMK A01 T03010020  RH  017%=      5-min Rain = 0
KEN1 272209Z 19025KT 30/02 A2971 RMK A01 T03010022  RH  017%=      5-min Rain = 0
KEN1 272210Z 20025KT 30/02 A297 RMK A01 T03020018  RH  016%=      5-min Rain = 0
KEN1 272211Z 20024G30KT 30/02 A297 RMK A01 T03020022  RH  017%=      5-min Rain = 0
KEN1 272212Z 20027KT 30/02 A297 RMK A01 T03010016  RH  016%=      5-min Rain = 0
KEN1 272213Z 18032KT 30/01 A297 RMK A01 T03010011  RH  016%=      5-min Rain = 0
KEN1 272214Z 18027KT 30/01 A297 RMK A01 T03000010  RH  016%=      5-min Rain = 0
KEN1 272215Z 19026G31KT 30/01 A297 RMK A01 T02990013  RH  016%=      5-min Rain = 0
KEN1 272216Z 19023KT 30/01 A297 RMK A01 T02990013  RH  016%=      5-min Rain = 0
KEN1 272217Z 19024G30KT 30/02 A297 RMK A01 T02990022  RH  017%=      5-min Rain = 0
KEN1 272218Z 19021KT 30/02 A297 RMK A01 T02990020  RH  017%=      5-min Rain = 0
KEN1 272219Z 19025G30KT 30/03 A297 RMK A01 T03000025  RH  017%=      5-min Rain = 0
KEN1 272220Z 19026KT 30/02 A297 RMK A01 T03010023  RH  017%=      5-min Rain = 0
KEN1 272221Z 18024KT 30/02 A297 RMK A01 T03010021  RH  017%=      5-min Rain = 0
KEN1 272222Z 18023KT 30/02 A297 RMK A01 T03010022  RH  017%=      5-min Rain = 0
KEN1 272223Z 18023KT 30/03 A297 RMK A01 T03010027  RH  017%=      5-min Rain = 0
KEN1 272224Z 19026G33KT 30/02 A297 RMK A01 T03010022  RH  017%=      5-min Rain = 0
KEN1 272225Z 19029G35KT 30/01 A297 RMK A01 T03010014  RH  016%=      5-min Rain = 0
KEN1 272226Z 19030G36KT 30/01 A297 RMK A01 T03000012  RH  016%=      5-min Rain = 0
KEN1 272227Z 18030KT 30/01 A297 RMK A01 T02990010  RH  016%=      5-min Rain = 0
KEN1 272228Z 18026G31KT 30/01 A297 RMK A01 T02990010  RH  016%=      5-min Rain = 0
KEN1 272229Z 19028KT 30/02 A297 RMK A01 T02990015  RH  016%=      5-min Rain = 0
KEN1 272230Z 19029KT 30/01 A2969 RMK A01 T02990011  RH  016%=      5-min Rain = 0
KEN1 272231Z 18033KT 30/01 A2969 RMK A01 T02990009  RH  015%=      5-min Rain = 0
KEN1 272232Z 18030G38KT 30/01 A2969 RMK A01 T02990013  RH  016%=      5-min Rain = 0
KEN1 272233Z 19029KT 30/01 A2969 RMK A01 T03000012  RH  016%=      5-min Rain = 0
KEN1 272234Z 18028KT 30/01 A2969 RMK A01 T03000013  RH  016%=      5-min Rain = 0
KEN1 272235Z 19029KT 30/02 A2969 RMK A01 T03010018  RH  016%=      5-min Rain = 0
KEN1 272236Z 19026KT 30/02 A2969 RMK A01 T03010021  RH  017%=      5-min Rain = 0
KEN1 272237Z 19026G32KT 30/02 A2969 RMK A01 T03020024  RH  017%=      5-min Rain = 0
KEN1 272238Z 19028KT 30/02 A2969 RMK A01 T03020020  RH  016%=      5-min Rain = 0
KEN1 272239Z 20028KT 30/02 A2969 RMK A01 T03010020  RH  017%=      5-min Rain = 0
KEN1 272240Z 19026G31KT 30/02 A2969 RMK A01 T03010023  RH  017%=      5-min Rain = 0
KEN1 272241Z 20026G33KT 30/02 A2969 RMK A01 T03010018  RH  016%=      5-min Rain = 0
KEN1 272242Z 19030KT 30/01 A2969 RMK A01 T03010011  RH  016%=      5-min Rain = 0
KEN1 272243Z 19026G32KT 30/01 A2969 RMK A01 T03000009  RH  015%=      5-min Rain = 0
KEN1 272244Z 19024G31KT 30/02 A2969 RMK A01 T03000016  RH  016%=      5-min Rain = 0
KEN1 272245Z 20024KT 30/02 A2969 RMK A01 T03000019  RH  017%=      5-min Rain = 0
KEN1 272246Z 20023KT 30/03 A2969 RMK A01 T03010026  RH  017%=      5-min Rain = 0
KEN1 272247Z 20021KT 30/03 A2969 RMK A01 T03010031  RH  018%=      5-min Rain = 0
KEN1 272248Z 20019G24KT 30/04 A2969 RMK A01 T03010036  RH  018%=      5-min Rain = 0
KEN1 272249Z 20022KT 30/04 A2969 RMK A01 T03010035  RH  018%=      5-min Rain = 0
KEN1 272250Z 19028KT 30/02 A2969 RMK A01 T03020024  RH  017%=      5-min Rain = 0
KEN1 272251Z 19028G34KT 30/02 A2969 RMK A01 T03010015  RH  016%=      5-min Rain = 0
KEN1 272252Z 19024G29KT 30/02 A2969 RMK A01 T03000016  RH  016%=      5-min Rain = 0
KEN1 272253Z 19023KT 30/02 A2969 RMK A01 T03000019  RH  016%=      5-min Rain = 0
KEN1 272254Z 19021KT 30/03 A2969 RMK A01 T03000025  RH  017%=      5-min Rain = 0
KEN1 272255Z 20024KT 30/02 A2969 RMK A01 T03000022  RH  017%=      5-min Rain = 0
KEN1 272256Z 19021G26KT 30/03 A2969 RMK A01 T03000025  RH  017%=      5-min Rain = 0
KEN1 272257Z 19026G32KT 30/02 A2969 RMK A01 T03010022  RH  017%=      5-min Rain = 0
KEN1 272258Z 19027G34KT 30/01 A2969 RMK A01 T03010014  RH  016%=      5-min Rain = 0
KEN1 272259Z 21024G29KT 30/02 A2969 RMK A01 T03010017  RH  016%=      5-min Rain = 0
KEN1 272300Z 21025KT 30/01 A2968 RMK A01 T03010009  RH  015%=      5-min Rain = 0
KEN1 272301Z 21027KT 30/01 A2968 RMK A01 T03010005  RH  015%=      5-min Rain = 0
KEN1 272302Z 21023G29KT 30/01 A2968 RMK A01 T03000008  RH  015%=      5-min Rain = 0
KEN1 272303Z 19019G24KT 30/02 A2969 RMK A01 T03000019  RH  017%=      5-min Rain = 0
KEN1 272304Z 19014KT 30/03 A2969 RMK A01 T03000034  RH  018%=      5-min Rain = 0
KEN1 272305Z 19017KT 30/04 A2968 RMK A01 T03010038  RH  019%=      5-min Rain = 0
KEN1 272306Z 19018G24KT 30/04 A2968 RMK A01 T03020036  RH  018%=      5-min Rain = 0
KEN1 272307Z 19021G26KT 30/03 A2968 RMK A01 T03030029  RH  017%=      5-min Rain = 0
KEN1 272308Z 19023KT 30/03 A2968 RMK A01 T03030026  RH  017%=      5-min Rain = 0
KEN1 272309Z 20021G26KT 30/03 A2968 RMK A01 T03020025  RH  017%=      5-min Rain = 0
KEN1 272310Z 20025G31KT 30/02 A2968 RMK A01 T03020024  RH  017%=      5-min Rain = 0
KEN1 272311Z 20030G35KT 30/01 A2968 RMK A01 T03020012  RH  016%=      5-min Rain = 0
KEN1 272312Z 20029G38KT 30/00 A2968 RMK A01 T03010004  RH  015%=      5-min Rain = 0
KEN1 272313Z 20030G36KT 30/00 A2968 RMK A01 T03000000  RH  014%=      5-min Rain = 0
KEN1 272314Z 20026KT 30/01 A2968 RMK A01 T02990006  RH  015%=      5-min Rain = 0
KEN1 272315Z 20027G32KT 30/00 A2968 RMK A01 T02990003  RH  015%=      5-min Rain = 0
KEN1 272316Z 20027KT 30/01 A2968 RMK A01 T02990005  RH  015%=      5-min Rain = 0
KEN1 272317Z 20026KT 30/01 A2968 RMK A01 T02990007  RH  015%=      5-min Rain = 0
KEN1 272318Z 20024G29KT 30/01 A2968 RMK A01 T02990010  RH  016%=      5-min Rain = 0
KEN1 272319Z 20027G34KT 30/01 A2968 RMK A01 T02990009  RH  015%=      5-min Rain = 0
KEN1 272320Z 19028KT 30/01 A2968 RMK A01 T02990007  RH  015%=      5-min Rain = 0
KEN1 272321Z 20026KT 30/01 A2968 RMK A01 T02990010  RH  016%=      5-min Rain = 0
KEN1 272322Z 19025G32KT 30/01 A2968 RMK A01 T02990009  RH  015%=      5-min Rain = 0
KEN1 272323Z 19026G32KT 30/01 A2968 RMK A01 T02990006  RH  015%=      5-min Rain = 0
KEN1 272324Z 19026KT 30/01 A2968 RMK A01 T02990007  RH  015%=      5-min Rain = 0
KEN1 272325Z 19026KT 30/01 A2968 RMK A01 T02990009  RH  015%=      5-min Rain = 0
KEN1 272326Z 19024KT 30/01 A2968 RMK A01 T02990008  RH  015%=      5-min Rain = 0
KEN1 272327Z 19021KT 30/01 A2968 RMK A01 T02990012  RH  016%=      5-min Rain = 0
KEN1 272328Z 19027KT 30/01 A2968 RMK A01 T02990011  RH  016%=      5-min Rain = 0
KEN1 272329Z 19029KT 30/00 A2968 RMK A01 T02990001  RH  015%=      5-min Rain = 0
KEN1 272330Z 19027G32KT 30/01 A2968 RMK A01 T02990005  RH  015%=      5-min Rain = 0
KEN1 272331Z 20023KT 30/01 A2968 RMK A01 T02990013  RH  016%=      5-min Rain = 0
KEN1 272332Z 20023KT 30/02 A2968 RMK A01 T02990018  RH  017%=      5-min Rain = 0
KEN1 272333Z 20022G28KT 30/02 A2968 RMK A01 T02980017  RH  016%=      5-min Rain = 0
KEN1 272334Z 20028G34KT 30/01 A2967 RMK A01 T02980005  RH  015%=      5-min Rain = 0
KEN1 272335Z 20028G33KT 30/00 A2968 RMK A01 T02980003  RH  015%=      5-min Rain = 0
KEN1 272336Z 20030G35KT 30/00 A2968 RMK A01 T02980003  RH  015%=      5-min Rain = 0
KEN1 272337Z 20026G31KT 30/00 A2968 RMK A01 T02970001  RH  015%=      5-min Rain = 0
KEN1 272338Z 20023G28KT 30/01 A2968 RMK A01 T02970007  RH  015%=      5-min Rain = 0
KEN1 272339Z 20022KT 30/01 A2968 RMK A01 T02960011  RH  016%=      5-min Rain = 0
KEN1 272340Z 20022G27KT 30/01 A2968 RMK A01 T02960010  RH  016%=      5-min Rain = 0
KEN1 272341Z 20021G27KT 30/02 A2968 RMK A01 T02960015  RH  016%=      5-min Rain = 0
KEN1 272342Z 20025KT 30/01 A2968 RMK A01 T02960011  RH  016%=      5-min Rain = 0
KEN1 272343Z 19024G29KT 30/02 A2968 RMK A01 T02960015  RH  016%=      5-min Rain = 0
KEN1 272344Z 20026G34KT 30/01 A2967 RMK A01 T02960008  RH  016%=      5-min Rain = 0
KEN1 272345Z 19029G34KT 30/00 A2968 RMK A01 T02960003  RH  015%=      5-min Rain = 0
KEN1 272346Z 19030KT 30/M00 A2967 RMK A01 T02961003  RH  014%=      5-min Rain = 0
KEN1 272347Z 19028KT 30/M00 A2968 RMK A01 T02961003  RH  014%=      5-min Rain = 0
KEN1 272348Z 19025G30KT 30/00 A2968 RMK A01 T02960001  RH  015%=      5-min Rain = 0
KEN1 272349Z 19022G27KT 30/01 A2968 RMK A01 T02960008  RH  016%=      5-min Rain = 0
KEN1 272350Z 18027G33KT 30/01 A2968 RMK A01 T02960008  RH  016%=      5-min Rain = 0
KEN1 272351Z 19029G34KT 30/01 A2968 RMK A01 T02960005  RH  015%=      5-min Rain = 0
KEN1 272352Z 19027G33KT 30/01 A2967 RMK A01 T02960005  RH  015%=      5-min Rain = 0
KEN1 272353Z 19030KT 30/00 A2967 RMK A01 T029600-0  RH  015%=      5-min Rain = 0
KEN1 272354Z 19027KT 30/00 A2967 RMK A01 T02960000  RH  015%=      5-min Rain = 0
KEN1 272355Z 19023G29KT 30/01 A2967 RMK A01 T02960005  RH  015%=      5-min Rain = 0
KEN1 272356Z 19024KT 30/01 A2967 RMK A01 T02950009  RH  016%=      5-min Rain = 0
KEN1 272357Z 20027KT 30/01 A2967 RMK A01 T02950007  RH  016%=      5-min Rain = 0
KEN1 272358Z 20023KT 30/01 A2967 RMK A01 T02950008  RH  016%=      5-min Rain = 0
KEN1 272359Z 20025KT 29/01 A2967 RMK A01 T02940007  RH  016%=      5-min Rain = 0
KEN1 280000Z 20022KT 29/01 A2967 RMK A01 T02940009  RH  016%=      5-min Rain = 0
KEN1 280001Z 20025G30KT 29/01 A2967 RMK A01 T02940011  RH  016%=      5-min Rain = 0
KEN1 280002Z 19028G34KT 29/01 A2967 RMK A01 T02940007  RH  016%=      5-min Rain = 0
KEN1 280003Z 19025G30KT 29/01 A2967 RMK A01 T02940008  RH  016%=      5-min Rain = 0
KEN1 280004Z 19025KT 29/01 A2967 RMK A01 T02940009  RH  016%=      5-min Rain = 0
KEN1 280005Z 20021G26KT 29/02 A2967 RMK A01 T02940017  RH  017%=      5-min Rain = 0
KEN1 280006Z 20029G34KT 29/01 A2967 RMK A01 T02940010  RH  016%=      5-min Rain = 0
KEN1 280007Z 20027KT 29/00 A2967 RMK A01 T02940003  RH  015%=      5-min Rain = 0
KEN1 280008Z 20025G30KT 29/01 A2967 RMK A01 T02940006  RH  016%=      5-min Rain = 0
KEN1 280009Z 20022G28KT 29/02 A2967 RMK A01 T02940015  RH  017%=      5-min Rain = 0
KEN1 280010Z 20024G29KT 29/01 A2967 RMK A01 T02930010  RH  016%=      5-min Rain = 0
KEN1 280011Z 20021KT 29/02 A2967 RMK A01 T02930015  RH  017%=      5-min Rain = 0
KEN1 280012Z 20022G28KT 29/01 A2967 RMK A01 T02920014  RH  017%=      5-min Rain = 0
KEN1 280013Z 19024G31KT 29/01 A2967 RMK A01 T02920014  RH  017%=      5-min Rain = 0
KEN1 280014Z 19025KT 29/01 A2967 RMK A01 T02930008  RH  016%=      5-min Rain = 0
KEN1 280015Z 19023G28KT 29/01 A2967 RMK A01 T02930010  RH  016%=      5-min Rain = 0
KEN1 280016Z 20022KT 29/01 A2967 RMK A01 T02930013  RH  017%=      5-min Rain = 0
KEN1 280017Z 19022KT 29/02 A2967 RMK A01 T02920015  RH  017%=      5-min Rain = 0
KEN1 280018Z 19022KT 29/01 A2967 RMK A01 T02920013  RH  017%=      5-min Rain = 0
KEN1 280019Z 20025KT 29/01 A2967 RMK A01 T02920013  RH  017%=      5-min Rain = 0
KEN1 280020Z 20024KT 29/01 A2967 RMK A01 T02920012  RH  017%=      5-min Rain = 0
KEN1 280021Z 19021KT 29/02 A2967 RMK A01 T02920016  RH  017%=      5-min Rain = 0
KEN1 280022Z 19023KT 29/02 A2967 RMK A01 T02920015  RH  017%=      5-min Rain = 0
KEN1 280023Z 19021KT 29/02 A2967 RMK A01 T02920020  RH  017%=      5-min Rain = 0
KEN1 280024Z 20022KT 29/02 A2967 RMK A01 T02910022  RH  018%=      5-min Rain = 0
KEN1 280025Z 19022KT 29/02 A2967 RMK A01 T02900019  RH  017%=      5-min Rain = 0
KEN1 280026Z 19025KT 29/01 A2967 RMK A01 T02900014  RH  017%=      5-min Rain = 0
KEN1 280027Z 19022KT 29/02 A2967 RMK A01 T02910017  RH  017%=      5-min Rain = 0
KEN1 280028Z 19020KT 29/02 A2967 RMK A01 T02900017  RH  017%=      5-min Rain = 0
KEN1 280029Z 19022KT 29/02 A2967 RMK A01 T02900019  RH  017%=      5-min Rain = 0
KEN1 280030Z 20022KT 29/02 A2967 RMK A01 T02900015  RH  017%=      5-min Rain = 0
KEN1 280031Z 19023G30KT 29/02 A2967 RMK A01 T02900017  RH  017%=      5-min Rain = 0
KEN1 280032Z 19023G29KT 29/01 A2967 RMK A01 T02900009  RH  016%=      5-min Rain = 0
KEN1 280033Z 19022G28KT 29/02 A2967 RMK A01 T02900016  RH  017%=      5-min Rain = 0
KEN1 280034Z 19024G31KT 29/01 A2966 RMK A01 T02890009  RH  016%=      5-min Rain = 0
KEN1 280035Z 20024G29KT 29/01 A2966 RMK A01 T02900010  RH  016%=      5-min Rain = 0
KEN1 280036Z 19021G26KT 29/02 A2967 RMK A01 T02890017  RH  017%=      5-min Rain = 0
KEN1 280037Z 20022KT 29/02 A2967 RMK A01 T02890017  RH  017%=      5-min Rain = 0
KEN1 280038Z 19021KT 29/02 A2967 RMK A01 T02880017  RH  017%=      5-min Rain = 0
KEN1 280039Z 20020KT 29/02 A2967 RMK A01 T02880020  RH  018%=      5-min Rain = 0
KEN1 280040Z 20019G24KT 29/02 A2967 RMK A01 T02870024  RH  018%=      5-min Rain = 0
KEN1 280041Z 20022G27KT 29/02 A2967 RMK A01 T02860019  RH  018%=      5-min Rain = 0
KEN1 280042Z 20021G26KT 29/02 A2967 RMK A01 T02860019  RH  018%=      5-min Rain = 0
KEN1 280043Z 20018KT 29/02 A2967 RMK A01 T02860023  RH  018%=      5-min Rain = 0
KEN1 280044Z 20016G22KT 29/03 A2967 RMK A01 T02850030  RH  019%=      5-min Rain = 0
KEN1 280045Z 20018KT 28/03 A2967 RMK A01 T02840028  RH  019%=      5-min Rain = 0
KEN1 280046Z 19019G24KT 28/02 A2967 RMK A01 T02840024  RH  019%=      5-min Rain = 0
KEN1 280047Z 20022G27KT 28/02 A2967 RMK A01 T02840019  RH  018%=      5-min Rain = 0
KEN1 280048Z 19019KT 29/02 A2967 RMK A01 T02850019  RH  018%=      5-min Rain = 0
KEN1 280049Z 20020KT 29/02 A2967 RMK A01 T02850021  RH  018%=      5-min Rain = 0
KEN1 280050Z 19019G24KT 29/02 A2967 RMK A01 T02850022  RH  018%=      5-min Rain = 0
KEN1 280051Z 19020KT 29/02 A2967 RMK A01 T02850020  RH  018%=      5-min Rain = 0
KEN1 280052Z 19022KT 29/02 A2967 RMK A01 T02850018  RH  018%=      5-min Rain = 0
KEN1 280053Z 20024G30KT 29/02 A2967 RMK A01 T02850017  RH  018%=      5-min Rain = 0
KEN1 280054Z 19022KT 29/02 A2967 RMK A01 T02850017  RH  018%=      5-min Rain = 0
KEN1 280055Z 19024G29KT 29/01 A2967 RMK A01 T02850014  RH  017%=      5-min Rain = 0
KEN1 280056Z 20026G31KT 29/01 A2967 RMK A01 T02850010  RH  017%=      5-min Rain = 0
KEN1 280057Z 19020KT 29/02 A2967 RMK A01 T02860017  RH  018%=      5-min Rain = 0
KEN1 280058Z 20021G26KT 28/02 A2967 RMK A01 T02840018  RH  018%=      5-min Rain = 0
KEN1 280059Z 19019KT 28/02 A2967 RMK A01 T02830019  RH  018%=      5-min Rain = 0
KEN1 280100Z 20020KT 28/02 A2967 RMK A01 T02820020  RH  018%=      5-min Rain = 0
KEN1 280101Z 19019G25KT 28/02 A2967 RMK A01 T02810021  RH  019%=      5-min Rain = 0
KEN1 280102Z 19017KT 28/02 A2967 RMK A01 T02800024  RH  019%=      5-min Rain = 0
KEN1 280103Z 19018KT 28/02 A2967 RMK A01 T02790022  RH  019%=      5-min Rain = 0
KEN1 280104Z 19020KT 28/02 A2967 RMK A01 T02790015  RH  018%=      5-min Rain = 0
KEN1 280105Z 20017G22KT 28/02 A2967 RMK A01 T02800021  RH  019%=      5-min Rain = 0
KEN1 280106Z 19020KT 28/02 A2967 RMK A01 T02790023  RH  019%=      5-min Rain = 0
KEN1 280107Z 19018KT 28/02 A2967 RMK A01 T02780019  RH  019%=      5-min Rain = 0
KEN1 280108Z 19019G24KT 28/02 A2967 RMK A01 T02780021  RH  019%=      5-min Rain = 0
KEN1 280109Z 19019KT 28/02 A2967 RMK A01 T02780020  RH  019%=      5-min Rain = 0
KEN1 280110Z 19021KT 28/02 A2967 RMK A01 T02780019  RH  019%=      5-min Rain = 0
KEN1 280111Z 19020KT 28/02 A2967 RMK A01 T02780018  RH  019%=      5-min Rain = 0
KEN1 280112Z 19020KT 28/02 A2967 RMK A01 T02780021  RH  019%=      5-min Rain = 0
KEN1 280113Z 19019KT 28/02 A2967 RMK A01 T02770022  RH  019%=      5-min Rain = 0
KEN1 280114Z 19017KT 28/02 A2967 RMK A01 T02750024  RH  020%=      5-min Rain = 0
KEN1 280115Z 19017KT 27/03 A2967 RMK A01 T02740025  RH  020%=      5-min Rain = 0
KEN1 280116Z 19019KT 27/02 A2967 RMK A01 T02730022  RH  020%=      5-min Rain = 0
KEN1 280117Z 19018KT 27/02 A2967 RMK A01 T02720024  RH  020%=      5-min Rain = 0
KEN1 280118Z 19017KT 27/03 A2967 RMK A01 T02710026  RH  021%=      5-min Rain = 0
KEN1 280119Z 20019G25KT 27/02 A2967 RMK A01 T02700023  RH  020%=      5-min Rain = 0
KEN1 280120Z 19017KT 27/02 A2967 RMK A01 T02690023  RH  020%=      5-min Rain = 0
KEN1 280121Z 19017KT 27/02 A2967 RMK A01 T02690023  RH  020%=      5-min Rain = 0
KEN1 280122Z 19017KT 27/03 A2967 RMK A01 T02690025  RH  021%=      5-min Rain = 0
KEN1 280123Z 19016KT 27/03 A2967 RMK A01 T02680025  RH  021%=      5-min Rain = 0
KEN1 280124Z 20017KT 27/02 A2967 RMK A01 T02670023  RH  021%=      5-min Rain = 0
KEN1 280125Z 20016KT 27/02 A2967 RMK A01 T02670023  RH  021%=      5-min Rain = 0
KEN1 280126Z 19017KT 27/02 A2967 RMK A01 T02670024  RH  021%=      5-min Rain = 0
KEN1 280127Z 19018KT 27/02 A2967 RMK A01 T02660021  RH  020%=      5-min Rain = 0
KEN1 280128Z 19016KT 27/02 A2967 RMK A01 T02670023  RH  021%=      5-min Rain = 0
KEN1 280129Z 19017G22KT 27/02 A2967 RMK A01 T02660022  RH  021%=      5-min Rain = 0
KEN1 280130Z 19016KT 27/03 A2967 RMK A01 T02660025  RH  021%=      5-min Rain = 0
KEN1 280131Z 19017KT 27/02 A2967 RMK A01 T02650022  RH  021%=      5-min Rain = 0
KEN1 280132Z 19016KT 27/02 A2967 RMK A01 T02650024  RH  021%=      5-min Rain = 0
KEN1 280133Z 19016KT 26/03 A2967 RMK A01 T02640025  RH  021%=      5-min Rain = 0
KEN1 280134Z 19015KT 26/03 A2967 RMK A01 T02630028  RH  022%=      5-min Rain = 0
KEN1 280135Z 19016KT 26/03 A2967 RMK A01 T02600029  RH  022%=      5-min Rain = 0
KEN1 280136Z 19015KT 26/03 A2967 RMK A01 T02590027  RH  022%=      5-min Rain = 0
KEN1 280137Z 19015KT 26/03 A2967 RMK A01 T02590026  RH  022%=      5-min Rain = 0
KEN1 280138Z 19015KT 26/03 A2967 RMK A01 T02580029  RH  023%=      5-min Rain = 0
KEN1 280139Z 19016KT 26/03 A2967 RMK A01 T02560028  RH  023%=      5-min Rain = 0
KEN1 280140Z 19013KT 26/03 A2967 RMK A01 T02560028  RH  023%=      5-min Rain = 0
KEN1 280141Z 19014KT 26/03 A2967 RMK A01 T02550030  RH  023%=      5-min Rain = 0
KEN1 280142Z 19014KT 25/03 A2967 RMK A01 T02540028  RH  023%=      5-min Rain = 0
KEN1 280143Z 18014KT 25/03 A2967 RMK A01 T02530030  RH  024%=      5-min Rain = 0
KEN1 280144Z 18015KT 25/03 A2967 RMK A01 T02520030  RH  024%=      5-min Rain = 0
KEN1 280145Z 18014KT 25/03 A2967 RMK A01 T02520030  RH  024%=      5-min Rain = 0
KEN1 280146Z 18014KT 25/03 A2967 RMK A01 T02510033  RH  024%=      5-min Rain = 0
KEN1 280147Z 18014KT 25/03 A2967 RMK A01 T02510032  RH  024%=      5-min Rain = 0
KEN1 280148Z 19013G18KT 25/03 A2967 RMK A01 T02500033  RH  024%=      5-min Rain = 0
KEN1 280149Z 19016KT 25/03 A2967 RMK A01 T02490031  RH  024%=      5-min Rain = 0
KEN1 280150Z 19017KT 25/03 A2967 RMK A01 T02500028  RH  024%=      5-min Rain = 0
KEN1 280151Z 19016KT 25/03 A2967 RMK A01 T02520026  RH  023%=      5-min Rain = 0
KEN1 280152Z 19016KT 25/03 A2967 RMK A01 T02530029  RH  023%=      5-min Rain = 0
KEN1 280153Z 19015KT 25/03 A2967 RMK A01 T02530029  RH  023%=      5-min Rain = 0
KEN1 280154Z 18015KT 25/03 A2967 RMK A01 T02530032  RH  024%=      5-min Rain = 0
KEN1 280155Z 18016KT 25/03 A2967 RMK A01 T02500031  RH  024%=      5-min Rain = 0
KEN1 280156Z 19015KT 25/03 A2967 RMK A01 T02500031  RH  024%=      5-min Rain = 0
KEN1 280157Z 19014KT 25/03 A2967 RMK A01 T02490032  RH  024%=      5-min Rain = 0
KEN1 280158Z 18014KT 25/03 A2967 RMK A01 T02480032  RH  025%=      5-min Rain = 0
KEN1 280159Z 18013KT 25/04 A2967 RMK A01 T02470035  RH  025%=      5-min Rain = 0
KEN1 280200Z 18014KT 24/04 A2967 RMK A01 T02440037  RH  026%=      5-min Rain = 0
KEN1 280201Z 18013KT 24/04 A2967 RMK A01 T02420037  RH  026%=      5-min Rain = 0
KEN1 280202Z 18014KT 24/04 A2967 RMK A01 T02400038  RH  027%=      5-min Rain = 0
KEN1 280203Z 18014KT 24/04 A2967 RMK A01 T02390039  RH  027%=      5-min Rain = 0
KEN1 280204Z 18013KT 24/04 A2967 RMK A01 T02380039  RH  027%=      5-min Rain = 0
KEN1 280205Z 18014KT 24/04 A2967 RMK A01 T02370038  RH  027%=      5-min Rain = 0
KEN1 280206Z 18013KT 24/04 A2967 RMK A01 T02380036  RH  027%=      5-min Rain = 0
KEN1 280207Z 18013KT 24/04 A2967 RMK A01 T02380038  RH  027%=      5-min Rain = 0
KEN1 280208Z 18014KT 24/04 A2968 RMK A01 T02380040  RH  028%=      5-min Rain = 0
KEN1 280209Z 18014KT 24/04 A2967 RMK A01 T02360040  RH  028%=      5-min Rain = 0
KEN1 280210Z 19014KT 24/04 A2968 RMK A01 T02360038  RH  027%=      5-min Rain = 0
KEN1 280211Z 18014KT 24/04 A2968 RMK A01 T02360038  RH  027%=      5-min Rain = 0
KEN1 280212Z 18015KT 24/04 A2967 RMK A01 T02370037  RH  027%=      5-min Rain = 0
KEN1 280213Z 18015KT 24/04 A2968 RMK A01 T02380036  RH  027%=      5-min Rain = 0
KEN1 280214Z 19014KT 24/04 A2968 RMK A01 T02380037  RH  027%=      5-min Rain = 0
KEN1 280215Z 19015KT 24/04 A2968 RMK A01 T02370038  RH  027%=      5-min Rain = 0
KEN1 280216Z 19014KT 24/04 A2968 RMK A01 T02370037  RH  027%=      5-min Rain = 0
KEN1 280217Z 19014KT 24/04 A2968 RMK A01 T02370037  RH  027%=      5-min Rain = 0
KEN1 280218Z 19014KT 24/04 A2968 RMK A01 T02360037  RH  027%=      5-min Rain = 0
KEN1 280219Z 19014KT 24/04 A2968 RMK A01 T02360037  RH  027%=      5-min Rain = 0
KEN1 280220Z 19015KT 24/04 A2968 RMK A01 T02360036  RH  027%=      5-min Rain = 0
KEN1 280221Z 18014KT 24/04 A2968 RMK A01 T02360035  RH  027%=      5-min Rain = 0
KEN1 280222Z 18014KT 24/04 A2968 RMK A01 T02370035  RH  027%=      5-min Rain = 0
KEN1 280223Z 19014KT 24/04 A2968 RMK A01 T02370035  RH  027%=      5-min Rain = 0
KEN1 280224Z 18015KT 24/03 A2968 RMK A01 T02370034  RH  027%=      5-min Rain = 0
KEN1 280225Z 19014KT 24/03 A2968 RMK A01 T02380032  RH  026%=      5-min Rain = 0
KEN1 280226Z 19014KT 24/03 A2968 RMK A01 T02390034  RH  026%=      5-min Rain = 0
KEN1 280227Z 19015KT 24/03 A2968 RMK A01 T02380032  RH  026%=      5-min Rain = 0
KEN1 280228Z 19015KT 24/03 A2968 RMK A01 T02390032  RH  026%=      5-min Rain = 0
KEN1 280229Z 19015KT 24/03 A2968 RMK A01 T02390030  RH  026%=      5-min Rain = 0
KEN1 280230Z 19016KT 24/03 A2968 RMK A01 T02400030  RH  025%=      5-min Rain = 0
KEN1 280231Z 19016KT 24/03 A2968 RMK A01 T02400028  RH  025%=      5-min Rain = 0
KEN1 280232Z 19015KT 24/03 A2968 RMK A01 T02430027  RH  024%=      5-min Rain = 0
KEN1 280233Z 19016KT 24/03 A2968 RMK A01 T02430029  RH  025%=      5-min Rain = 0
KEN1 280234Z 18016G21KT 24/03 A2968 RMK A01 T02430027  RH  024%=      5-min Rain = 0
KEN1 280235Z 19016KT 24/03 A2968 RMK A01 T02430025  RH  024%=      5-min Rain = 0
KEN1 280236Z 18015KT 24/03 A2968 RMK A01 T02440028  RH  025%=      5-min Rain = 0
KEN1 280237Z 18014KT 24/03 A2968 RMK A01 T02420033  RH  026%=      5-min Rain = 0
KEN1 280238Z 18016KT 24/03 A2968 RMK A01 T02390032  RH  026%=      5-min Rain = 0
KEN1 280239Z 18016KT 24/03 A2968 RMK A01 T02380029  RH  025%=      5-min Rain = 0
KEN1 280240Z 18015KT 24/03 A2968 RMK A01 T02390033  RH  026%=      5-min Rain = 0
KEN1 280241Z 19015KT 24/03 A2968 RMK A01 T02380032  RH  026%=      5-min Rain = 0
KEN1 280242Z 19015KT 24/03 A2968 RMK A01 T02380033  RH  026%=      5-min Rain = 0
KEN1 280243Z 18016KT 24/03 A2968 RMK A01 T02370033  RH  026%=      5-min Rain = 0
KEN1 280244Z 18016KT 24/03 A2968 RMK A01 T02360033  RH  027%=      5-min Rain = 0
KEN1 280245Z 18016KT 24/03 A2968 RMK A01 T02360032  RH  026%=      5-min Rain = 0
KEN1 280246Z 19016KT 24/03 A2968 RMK A01 T02370033  RH  026%=      5-min Rain = 0
KEN1 280247Z 18016KT 24/03 A2968 RMK A01 T02370033  RH  026%=      5-min Rain = 0
KEN1 280248Z 18015KT 24/03 A2968 RMK A01 T02360034  RH  027%=      5-min Rain = 0
KEN1 280249Z 19015KT 24/03 A2968 RMK A01 T02360034  RH  027%=      5-min Rain = 0
KEN1 280250Z 18014KT 24/03 A2968 RMK A01 T02350034  RH  027%=      5-min Rain = 0
KEN1 280251Z 18014KT 23/04 A2968 RMK A01 T02340036  RH  027%=      5-min Rain = 0
KEN1 280252Z 18014KT 23/04 A2968 RMK A01 T02320036  RH  028%=      5-min Rain = 0
KEN1 280253Z 18015KT 23/04 A2968 RMK A01 T02310035  RH  028%=      5-min Rain = 0
KEN1 280254Z 19015KT 23/03 A2968 RMK A01 T02310034  RH  028%=      5-min Rain = 0
KEN1 280255Z 19017KT 23/03 A2968 RMK A01 T02320033  RH  027%=      5-min Rain = 0
KEN1 280256Z 19015KT 23/03 A2968 RMK A01 T02340031  RH  027%=      5-min Rain = 0
KEN1 280257Z 18016KT 24/03 A2968 RMK A01 T02350032  RH  027%=      5-min Rain = 0
KEN1 280258Z 19015KT 24/03 A2968 RMK A01 T02350031  RH  026%=      5-min Rain = 0
KEN1 280259Z 19015KT 24/03 A2968 RMK A01 T02350033  RH  027%=      5-min Rain = 0
KEN1 280300Z 19014KT 24/03 A2968 RMK A01 T02350033  RH  027%=      5-min Rain = 0
KEN1 280301Z 19015KT 23/03 A2968 RMK A01 T02340033  RH  027%=      5-min Rain = 0
KEN1 280302Z 19015KT 23/03 A2968 RMK A01 T02340031  RH  027%=      5-min Rain = 0
KEN1 280303Z 19015KT 23/03 A2968 RMK A01 T02340032  RH  027%=      5-min Rain = 0
KEN1 280304Z 19015KT 23/03 A2968 RMK A01 T02340031  RH  027%=      5-min Rain = 0
KEN1 280305Z 19014KT 23/03 A2968 RMK A01 T02340032  RH  027%=      5-min Rain = 0
KEN1 280306Z 19015KT 23/03 A2968 RMK A01 T02340031  RH  027%=      5-min Rain = 0
KEN1 280307Z 19014KT 23/03 A2968 RMK A01 T02340031  RH  027%=      5-min Rain = 0
KEN1 280308Z 20014KT 23/03 A2969 RMK A01 T02340030  RH  026%=      5-min Rain = 0
KEN1 280309Z 20014G19KT 23/03 A2968 RMK A01 T02340029  RH  026%=      5-min Rain = 0
KEN1 280310Z 20014KT 24/03 A2969 RMK A01 T02350032  RH  027%=      5-min Rain = 0
KEN1 280311Z 20013KT 23/03 A2969 RMK A01 T02340031  RH  026%=      5-min Rain = 0
KEN1 280312Z 20013KT 23/03 A2969 RMK A01 T02340032  RH  027%=      5-min Rain = 0
KEN1 280313Z 21013KT 23/03 A2969 RMK A01 T02330033  RH  027%=      5-min Rain = 0
KEN1 280314Z 20013KT 23/03 A2969 RMK A01 T02330034  RH  027%=      5-min Rain = 0
KEN1 280315Z 21014KT 23/03 A2969 RMK A01 T02320033  RH  027%=      5-min Rain = 0
KEN1 280316Z 21013KT 23/03 A2969 RMK A01 T02320032  RH  027%=      5-min Rain = 0
KEN1 280317Z 24015KT 23/03 A297 RMK A01 T02330034  RH  027%=      5-min Rain = 0
KEN1 280318Z 25016G22KT 23/04 A2971 RMK A01 T02320036  RH  028%=      5-min Rain = 0
KEN1 280319Z 23016G21KT 23/04 A297 RMK A01 T02310036  RH  028%=      5-min Rain = 0
KEN1 280320Z 23015KT 23/04 A297 RMK A01 T02300037  RH  028%=      5-min Rain = 0
KEN1 280321Z 22013KT 23/04 A297 RMK A01 T02290038  RH  029%=      5-min Rain = 0
KEN1 280322Z 22013KT 23/04 A297 RMK A01 T02270039  RH  029%=      5-min Rain = 0
KEN1 280323Z 22014KT 23/04 A297 RMK A01 T02260040  RH  030%=      5-min Rain = 0
KEN1 280324Z 22013KT 23/04 A297 RMK A01 T02250040  RH  030%=      5-min Rain = 0
KEN1 280325Z 22014KT 22/04 A297 RMK A01 T02240038  RH  030%=      5-min Rain = 0
KEN1 280326Z 22014KT 23/04 A297 RMK A01 T02250035  RH  029%=      5-min Rain = 0
KEN1 280327Z 22012KT 23/04 A297 RMK A01 T02260037  RH  029%=      5-min Rain = 0
KEN1 280328Z 22013KT 23/04 A297 RMK A01 T02250037  RH  029%=      5-min Rain = 0
KEN1 280329Z 22012KT 23/04 A297 RMK A01 T02250037  RH  029%=      5-min Rain = 0
KEN1 280330Z 22012KT 22/04 A297 RMK A01 T02240039  RH  030%=      5-min Rain = 0
KEN1 280331Z 22012KT 22/04 A297 RMK A01 T02230038  RH  030%=      5-min Rain = 0
KEN1 280332Z 22011KT 22/04 A297 RMK A01 T02230038  RH  030%=      5-min Rain = 0
KEN1 280333Z 22012KT 22/04 A297 RMK A01 T02230038  RH  030%=      5-min Rain = 0
KEN1 280334Z 22013KT 22/04 A297 RMK A01 T02220038  RH  030%=      5-min Rain = 0
KEN1 280335Z 22011KT 22/04 A297 RMK A01 T02220039  RH  030%=      5-min Rain = 0
KEN1 280336Z 22011KT 22/04 A297 RMK A01 T02210041  RH  031%=      5-min Rain = 0
KEN1 280337Z 22012KT 22/04 A297 RMK A01 T02190042  RH  031%=      5-min Rain = 0
KEN1 280338Z 22011KT 22/04 A297 RMK A01 T02170041  RH  032%=      5-min Rain = 0
KEN1 280339Z 22011KT 22/04 A297 RMK A01 T02160043  RH  032%=      5-min Rain = 0
KEN1 280340Z 22010KT 22/04 A297 RMK A01 T02150043  RH  032%=      5-min Rain = 0
KEN1 280341Z 22010KT 21/04 A297 RMK A01 T02140044  RH  033%=      5-min Rain = 0
KEN1 280342Z 21010KT 21/04 A297 RMK A01 T02120044  RH  033%=      5-min Rain = 0
KEN1 280343Z 21011KT 21/05 A297 RMK A01 T02110045  RH  034%=      5-min Rain = 0
KEN1 280344Z 21010KT 21/05 A297 RMK A01 T02100047  RH  034%=      5-min Rain = 0
KEN1 280345Z 20010KT 21/05 A2971 RMK A01 T02080049  RH  035%=      5-min Rain = 0
KEN1 280346Z 20009KT 21/05 A2971 RMK A01 T02060048  RH  036%=      5-min Rain = 0
KEN1 280347Z 21008KT 20/05 A2971 RMK A01 T02040051  RH  036%=      5-min Rain = 0
KEN1 280348Z 21009KT 20/05 A2971 RMK A01 T02020051  RH  037%=      5-min Rain = 0
KEN1 280349Z 21008KT 20/05 A2971 RMK A01 T02010052  RH  037%=      5-min Rain = 0
KEN1 280350Z 21009KT 20/05 A2971 RMK A01 T02000052  RH  038%=      5-min Rain = 0
KEN1 280351Z 21008KT 20/05 A2971 RMK A01 T01990051  RH  038%=      5-min Rain = 0
KEN1 280352Z 21008KT 20/05 A2971 RMK A01 T01980052  RH  038%=      5-min Rain = 0
KEN1 280353Z 20008KT 20/05 A2971 RMK A01 T01970054  RH  039%=      5-min Rain = 0
KEN1 280354Z 20008KT 20/06 A2971 RMK A01 T01950055  RH  040%=      5-min Rain = 0
KEN1 280355Z 20008KT 19/06 A2971 RMK A01 T01940056  RH  041%=      5-min Rain = 0
KEN1 280356Z 20008KT 19/06 A2971 RMK A01 T01920056  RH  041%=      5-min Rain = 0
KEN1 280357Z 20008KT 19/06 A2971 RMK A01 T01910056  RH  041%=      5-min Rain = 0
KEN1 280358Z 20009KT 19/06 A2971 RMK A01 T01900056  RH  042%=      5-min Rain = 0
KEN1 280359Z 20009KT 19/06 A2971 RMK A01 T01890056  RH  042%=      5-min Rain = 0
KEN1 280400Z 21010KT 19/06 A2971 RMK A01 T01890056  RH  042%=      5-min Rain = 0
KEN1 280401Z 21009KT 19/06 A2971 RMK A01 T01880057  RH  042%=      5-min Rain = 0
KEN1 280402Z 20010KT 19/06 A2971 RMK A01 T01880058  RH  042%=      5-min Rain = 0
KEN1 280403Z 20010KT 19/06 A2971 RMK A01 T01870058  RH  043%=      5-min Rain = 0
KEN1 280404Z 20010KT 19/06 A2971 RMK A01 T01870057  RH  043%=      5-min Rain = 0
KEN1 280405Z 20010KT 19/06 A2971 RMK A01 T01860058  RH  043%=      5-min Rain = 0
KEN1 280406Z 20010KT 19/06 A2971 RMK A01 T01850059  RH  044%=      5-min Rain = 0
KEN1 280407Z 20010KT 18/06 A2972 RMK A01 T01840060  RH  044%=      5-min Rain = 0
KEN1 280408Z 20010KT 18/06 A2972 RMK A01 T01830060  RH  044%=      5-min Rain = 0
KEN1 280409Z 21011KT 18/06 A2972 RMK A01 T01820060  RH  045%=      5-min Rain = 0
KEN1 280410Z 21011KT 18/06 A2972 RMK A01 T01820057  RH  044%=      5-min Rain = 0
KEN1 280411Z 21010KT 18/05 A2972 RMK A01 T01820054  RH  043%=      5-min Rain = 0
KEN1 280412Z 21010KT 18/06 A2972 RMK A01 T01830056  RH  043%=      5-min Rain = 0
KEN1 280413Z 21010KT 18/06 A2972 RMK A01 T01830057  RH  044%=      5-min Rain = 0
KEN1 280414Z 22010KT 18/06 A2972 RMK A01 T01830055  RH  043%=      5-min Rain = 0
KEN1 280415Z 22010KT 18/05 A2972 RMK A01 T01820052  RH  042%=      5-min Rain = 0
KEN1 280416Z 23009KT 18/05 A2972 RMK A01 T01830050  RH  041%=      5-min Rain = 0
KEN1 280417Z 23010KT 18/05 A2972 RMK A01 T01840048  RH  041%=      5-min Rain = 0
KEN1 280418Z 23010KT 18/05 A2972 RMK A01 T01840046  RH  040%=      5-min Rain = 0
KEN1 280419Z 23010KT 19/05 A2972 RMK A01 T01850046  RH  040%=      5-min Rain = 0
KEN1 280420Z 23011KT 19/04 A2972 RMK A01 T01850040  RH  038%=      5-min Rain = 0
KEN1 280421Z 23011KT 19/04 A2972 RMK A01 T01880039  RH  037%=      5-min Rain = 0
KEN1 280422Z 23011KT 19/04 A2972 RMK A01 T01890038  RH  037%=      5-min Rain = 0
KEN1 280423Z 23011KT 19/04 A2972 RMK A01 T01900037  RH  036%=      5-min Rain = 0
KEN1 280424Z 23011KT 19/04 A2972 RMK A01 T01900036  RH  036%=      5-min Rain = 0
KEN1 280425Z 22011KT 19/03 A2972 RMK A01 T01910033  RH  035%=      5-min Rain = 0
KEN1 280426Z 22011KT 19/03 A2972 RMK A01 T01920031  RH  034%=      5-min Rain = 0
KEN1 280427Z 22011KT 19/03 A2972 RMK A01 T01930033  RH  034%=      5-min Rain = 0
KEN1 280428Z 23010KT 19/03 A2972 RMK A01 T01940026  RH  033%=      5-min Rain = 0
KEN1 280429Z 22010KT 20/03 A2972 RMK A01 T01960028  RH  033%=      5-min Rain = 0
KEN1 280430Z 22010KT 20/03 A2972 RMK A01 T01960030  RH  033%=      5-min Rain = 0
KEN1 280431Z 22010KT 20/03 A2972 RMK A01 T01950028  RH  033%=      5-min Rain = 0
KEN1 280432Z 22009KT 19/03 A2972 RMK A01 T01940030  RH  034%=      5-min Rain = 0
KEN1 280433Z 22010KT 19/03 A2972 RMK A01 T01930028  RH  033%=      5-min Rain = 0
KEN1 280434Z 22009KT 19/03 A2972 RMK A01 T01930028  RH  033%=      5-min Rain = 0
KEN1 280435Z 22009KT 19/03 A2972 RMK A01 T01910033  RH  035%=      5-min Rain = 0
KEN1 280436Z 22009KT 19/03 A2972 RMK A01 T01880034  RH  036%=      5-min Rain = 0
KEN1 280437Z 22010KT 19/03 A2972 RMK A01 T01860034  RH  036%=      5-min Rain = 0
KEN1 280438Z 23010KT 19/03 A2972 RMK A01 T01850030  RH  036%=      5-min Rain = 0
KEN1 280439Z 23009KT 19/02 A2972 RMK A01 T01860024  RH  034%=      5-min Rain = 0
KEN1 280440Z 22009KT 19/02 A2972 RMK A01 T01870024  RH  034%=      5-min Rain = 0
KEN1 280441Z 22009KT 19/03 A2972 RMK A01 T01880025  RH  034%=      5-min Rain = 0
KEN1 280442Z 23009KT 19/03 A2972 RMK A01 T01880026  RH  034%=      5-min Rain = 0
KEN1 280443Z 22009KT 19/03 A2972 RMK A01 T01880028  RH  034%=      5-min Rain = 0
KEN1 280444Z 22009KT 19/03 A2972 RMK A01 T01870029  RH  035%=      5-min Rain = 0
KEN1 280445Z 22009KT 19/03 A2971 RMK A01 T01860028  RH  035%=      5-min Rain = 0
KEN1 280446Z 22009KT 19/03 A2971 RMK A01 T01850028  RH  035%=      5-min Rain = 0
KEN1 280447Z 22009KT 18/03 A2971 RMK A01 T01840029  RH  035%=      5-min Rain = 0
KEN1 280448Z 22009KT 18/03 A2971 RMK A01 T01840031  RH  036%=      5-min Rain = 0
KEN1 280449Z 23009KT 18/03 A2971 RMK A01 T01820032  RH  037%=      5-min Rain = 0
KEN1 280450Z 23009KT 18/03 A2971 RMK A01 T01810031  RH  037%=      5-min Rain = 0
KEN1 280451Z 23009KT 18/03 A2971 RMK A01 T01800030  RH  037%=      5-min Rain = 0
KEN1 280452Z 23009KT 18/03 A2971 RMK A01 T01800031  RH  037%=      5-min Rain = 0
KEN1 280453Z 23009KT 18/03 A2971 RMK A01 T01800031  RH  037%=      5-min Rain = 0
KEN1 280454Z 23009KT 18/03 A2971 RMK A01 T01800028  RH  036%=      5-min Rain = 0
KEN1 280455Z 23009KT 18/03 A2971 RMK A01 T01800028  RH  036%=      5-min Rain = 0
KEN1 280456Z 23009KT 18/03 A2971 RMK A01 T01800027  RH  036%=      5-min Rain = 0
KEN1 280457Z 23009KT 18/03 A2971 RMK A01 T01810027  RH  036%=      5-min Rain = 0
KEN1 280458Z 23009KT 18/03 A2971 RMK A01 T01810028  RH  036%=      5-min Rain = 0
KEN1 280459Z 23008KT 18/03 A2971 RMK A01 T01800028  RH  036%=      5-min Rain = 0

Page generated in 0.122 seconds.